<?xml version="1.0" encoding="UTF-8"?>
<gpx
 version="1.0"
creator="GPSBabel - http://www.gpsbabel.org"
xmlns:xsi="http://www.w3.org/2001/XMLSchema-instance"
xmlns="http://www.topografix.com/GPX/1/0"
xsi:schemaLocation="http://www.topografix.com/GPX/1/0 http://www.topografix.com/GPX/1/0/gpx.xsd">
<time>2018-04-30T15:22:59Z</time>
<bounds minlat="44.358271770" minlon="5.493861770" maxlat="44.376925020" maxlon="5.514505050"/>
<trk>
<trkseg>
<trkpt lat="44.376840030" lon="5.514321830">
  <ele>733.799987</ele>
<time>2018-04-30T08:02:07Z</time>
</trkpt>
<trkpt lat="44.376925020" lon="5.514305060">
  <ele>740.400024</ele>
<time>2018-04-30T08:04:44Z</time>
</trkpt>
<trkpt lat="44.376868360" lon="5.514216720">
  <ele>739.599975</ele>
<time>2018-04-30T08:04:53Z</time>
</trkpt>
<trkpt lat="44.376808340" lon="5.514141780">
  <ele>737.799987</ele>
<time>2018-04-30T08:04:59Z</time>
</trkpt>
<trkpt lat="44.376730060" lon="5.514086800">
  <ele>734.500000</ele>
<time>2018-04-30T08:05:06Z</time>
</trkpt>
<trkpt lat="44.376660150" lon="5.514033490">
  <ele>731.900024</ele>
<time>2018-04-30T08:05:24Z</time>
</trkpt>
<trkpt lat="44.376586730" lon="5.513978330">
  <ele>730.400024</ele>
<time>2018-04-30T08:05:31Z</time>
</trkpt>
<trkpt lat="44.376533420" lon="5.513896690">
  <ele>732.000000</ele>
<time>2018-04-30T08:05:42Z</time>
</trkpt>
<trkpt lat="44.376513470" lon="5.513783370">
  <ele>733.000000</ele>
<time>2018-04-30T08:05:49Z</time>
</trkpt>
<trkpt lat="44.376510120" lon="5.513666700">
  <ele>732.799987</ele>
<time>2018-04-30T08:05:56Z</time>
</trkpt>
<trkpt lat="44.376486810" lon="5.513560080">
  <ele>733.500000</ele>
<time>2018-04-30T08:06:01Z</time>
</trkpt>
<trkpt lat="44.376475080" lon="5.513436700">
  <ele>733.900024</ele>
<time>2018-04-30T08:06:07Z</time>
</trkpt>
<trkpt lat="44.376470050" lon="5.513315160">
  <ele>737.500000</ele>
<time>2018-04-30T08:06:27Z</time>
</trkpt>
<trkpt lat="44.376460160" lon="5.513198480">
  <ele>738.099975</ele>
<time>2018-04-30T08:06:33Z</time>
</trkpt>
<trkpt lat="44.376466700" lon="5.513080130">
  <ele>738.799987</ele>
<time>2018-04-30T08:06:40Z</time>
</trkpt>
<trkpt lat="44.376456810" lon="5.512956750">
  <ele>737.000000</ele>
<time>2018-04-30T08:06:48Z</time>
</trkpt>
<trkpt lat="44.376423450" lon="5.512850130">
  <ele>737.299987</ele>
<time>2018-04-30T08:06:55Z</time>
</trkpt>
<trkpt lat="44.376391760" lon="5.512745020">
  <ele>737.500000</ele>
<time>2018-04-30T08:07:01Z</time>
</trkpt>
<trkpt lat="44.376360080" lon="5.512656680">
  <ele>738.900024</ele>
<time>2018-04-30T08:07:07Z</time>
</trkpt>
<trkpt lat="44.376326720" lon="5.512545030">
  <ele>739.799987</ele>
<time>2018-04-30T08:07:13Z</time>
</trkpt>
<trkpt lat="44.376300070" lon="5.512430030">
  <ele>740.900024</ele>
<time>2018-04-30T08:07:21Z</time>
</trkpt>
<trkpt lat="44.376266710" lon="5.512313350">
  <ele>742.799987</ele>
<time>2018-04-30T08:07:34Z</time>
</trkpt>
<trkpt lat="44.376251790" lon="5.512190140">
  <ele>744.099975</ele>
<time>2018-04-30T08:07:42Z</time>
</trkpt>
<trkpt lat="44.376268380" lon="5.512066760">
  <ele>745.299987</ele>
<time>2018-04-30T08:07:50Z</time>
</trkpt>
<trkpt lat="44.376255140" lon="5.512183430">
  <ele>745.400024</ele>
<time>2018-04-30T08:08:16Z</time>
</trkpt>
<trkpt lat="44.376178360" lon="5.512225010">
  <ele>745.200012</ele>
<time>2018-04-30T08:08:28Z</time>
</trkpt>
<trkpt lat="44.376095040" lon="5.512253340">
  <ele>744.500000</ele>
<time>2018-04-30T08:08:35Z</time>
</trkpt>
<trkpt lat="44.376018430" lon="5.512283350">
  <ele>743.799987</ele>
<time>2018-04-30T08:08:41Z</time>
</trkpt>
<trkpt lat="44.375936790" lon="5.512300110">
  <ele>742.900024</ele>
<time>2018-04-30T08:08:47Z</time>
</trkpt>
<trkpt lat="44.375853480" lon="5.512305140">
  <ele>742.000000</ele>
<time>2018-04-30T08:08:54Z</time>
</trkpt>
<trkpt lat="44.375775020" lon="5.512323410">
  <ele>741.099975</ele>
<time>2018-04-30T08:09:00Z</time>
</trkpt>
<trkpt lat="44.375688350" lon="5.512336820">
  <ele>740.500000</ele>
<time>2018-04-30T08:09:06Z</time>
</trkpt>
<trkpt lat="44.375611740" lon="5.512340010">
  <ele>739.799987</ele>
<time>2018-04-30T08:09:11Z</time>
</trkpt>
<trkpt lat="44.375535130" lon="5.512345040">
  <ele>740.000000</ele>
<time>2018-04-30T08:09:29Z</time>
</trkpt>
<trkpt lat="44.375446790" lon="5.512363480">
  <ele>739.599975</ele>
<time>2018-04-30T08:09:35Z</time>
</trkpt>
<trkpt lat="44.375370010" lon="5.512370020">
  <ele>739.299987</ele>
<time>2018-04-30T08:09:40Z</time>
</trkpt>
<trkpt lat="44.375283340" lon="5.512380070">
  <ele>739.099975</ele>
<time>2018-04-30T08:09:46Z</time>
</trkpt>
<trkpt lat="44.375205050" lon="5.512388460">
  <ele>739.299987</ele>
<time>2018-04-30T08:09:51Z</time>
</trkpt>
<trkpt lat="44.375123410" lon="5.512388460">
  <ele>739.599975</ele>
<time>2018-04-30T08:09:57Z</time>
</trkpt>
<trkpt lat="44.375035070" lon="5.512383430">
  <ele>739.900024</ele>
<time>2018-04-30T08:10:03Z</time>
</trkpt>
<trkpt lat="44.374946720" lon="5.512365150">
  <ele>740.400024</ele>
<time>2018-04-30T08:10:09Z</time>
</trkpt>
<trkpt lat="44.374866760" lon="5.512328440">
  <ele>740.400024</ele>
<time>2018-04-30T08:10:15Z</time>
</trkpt>
<trkpt lat="44.374791830" lon="5.512288380">
  <ele>740.000000</ele>
<time>2018-04-30T08:10:21Z</time>
</trkpt>
<trkpt lat="44.374708340" lon="5.512255020">
  <ele>740.900024</ele>
<time>2018-04-30T08:10:28Z</time>
</trkpt>
<trkpt lat="44.374631730" lon="5.512233390">
  <ele>742.500000</ele>
<time>2018-04-30T08:10:35Z</time>
</trkpt>
<trkpt lat="44.374610110" lon="5.512113360">
  <ele>743.000000</ele>
<time>2018-04-30T08:11:11Z</time>
</trkpt>
<trkpt lat="44.374525110" lon="5.512086710">
  <ele>743.799987</ele>
<time>2018-04-30T08:11:18Z</time>
</trkpt>
<trkpt lat="44.374446830" lon="5.512040100">
  <ele>742.099975</ele>
<time>2018-04-30T08:11:50Z</time>
</trkpt>
<trkpt lat="44.374365020" lon="5.512028370">
  <ele>741.900024</ele>
<time>2018-04-30T08:11:57Z</time>
</trkpt>
<trkpt lat="44.374286730" lon="5.512028370">
  <ele>742.599975</ele>
<time>2018-04-30T08:12:03Z</time>
</trkpt>
<trkpt lat="44.374201740" lon="5.512023340">
  <ele>743.500000</ele>
<time>2018-04-30T08:12:09Z</time>
</trkpt>
<trkpt lat="44.374120100" lon="5.512023340">
  <ele>743.700012</ele>
<time>2018-04-30T08:12:15Z</time>
</trkpt>
<trkpt lat="44.374040140" lon="5.512028370">
  <ele>743.400024</ele>
<time>2018-04-30T08:12:21Z</time>
</trkpt>
<trkpt lat="44.373955140" lon="5.512023340">
  <ele>744.000000</ele>
<time>2018-04-30T08:12:27Z</time>
</trkpt>
<trkpt lat="44.373881720" lon="5.512026690">
  <ele>744.700012</ele>
<time>2018-04-30T08:12:32Z</time>
</trkpt>
<trkpt lat="44.373805110" lon="5.512021660">
  <ele>745.599975</ele>
<time>2018-04-30T08:12:37Z</time>
</trkpt>
<trkpt lat="44.373728330" lon="5.512001710">
  <ele>747.500000</ele>
<time>2018-04-30T08:12:43Z</time>
</trkpt>
<trkpt lat="44.373651720" lon="5.511991820">
  <ele>748.500000</ele>
<time>2018-04-30T08:12:48Z</time>
</trkpt>
<trkpt lat="44.373575110" lon="5.511973380">
  <ele>747.700012</ele>
<time>2018-04-30T08:12:54Z</time>
</trkpt>
<trkpt lat="44.373491790" lon="5.511950080">
  <ele>747.900024</ele>
<time>2018-04-30T08:13:01Z</time>
</trkpt>
<trkpt lat="44.373410150" lon="5.511935160">
  <ele>748.000000</ele>
<time>2018-04-30T08:13:08Z</time>
</trkpt>
<trkpt lat="44.373323480" lon="5.511918400">
  <ele>748.299987</ele>
<time>2018-04-30T08:13:18Z</time>
</trkpt>
<trkpt lat="44.373240000" lon="5.511905150">
  <ele>748.700012</ele>
<time>2018-04-30T08:13:24Z</time>
</trkpt>
<trkpt lat="44.373156680" lon="5.511900130">
  <ele>749.200012</ele>
<time>2018-04-30T08:13:30Z</time>
</trkpt>
<trkpt lat="44.373071690" lon="5.511868440">
  <ele>749.400024</ele>
<time>2018-04-30T08:13:37Z</time>
</trkpt>
<trkpt lat="44.372993400" lon="5.511836760">
  <ele>749.400024</ele>
<time>2018-04-30T08:14:28Z</time>
</trkpt>
<trkpt lat="44.372910090" lon="5.511831730">
  <ele>750.099975</ele>
<time>2018-04-30T08:14:34Z</time>
</trkpt>
<trkpt lat="44.372831800" lon="5.511810100">
  <ele>750.700012</ele>
<time>2018-04-30T08:14:41Z</time>
</trkpt>
<trkpt lat="44.372758380" lon="5.511758470">
  <ele>748.700012</ele>
<time>2018-04-30T08:14:49Z</time>
</trkpt>
<trkpt lat="44.372675060" lon="5.511746740">
  <ele>746.000000</ele>
<time>2018-04-30T08:14:57Z</time>
</trkpt>
<trkpt lat="44.372591740" lon="5.511730140">
  <ele>744.500000</ele>
<time>2018-04-30T08:15:03Z</time>
</trkpt>
<trkpt lat="44.372516810" lon="5.511751770">
  <ele>746.599975</ele>
<time>2018-04-30T08:15:07Z</time>
</trkpt>
<trkpt lat="44.372438360" lon="5.511741710">
  <ele>745.700012</ele>
<time>2018-04-30T08:15:13Z</time>
</trkpt>
<trkpt lat="44.372351690" lon="5.511730140">
  <ele>746.200012</ele>
<time>2018-04-30T08:15:20Z</time>
</trkpt>
<trkpt lat="44.372275080" lon="5.511718410">
  <ele>747.000000</ele>
<time>2018-04-30T08:15:26Z</time>
</trkpt>
<trkpt lat="44.372186730" lon="5.511701810">
  <ele>748.900024</ele>
<time>2018-04-30T08:15:46Z</time>
</trkpt>
<trkpt lat="44.372108440" lon="5.511661740">
  <ele>752.000000</ele>
<time>2018-04-30T08:16:05Z</time>
</trkpt>
<trkpt lat="44.372030160" lon="5.511638440">
  <ele>754.500000</ele>
<time>2018-04-30T08:16:12Z</time>
</trkpt>
<trkpt lat="44.371960080" lon="5.511566690">
  <ele>754.400024</ele>
<time>2018-04-30T08:16:19Z</time>
</trkpt>
<trkpt lat="44.371886830" lon="5.511510030">
  <ele>755.000000</ele>
<time>2018-04-30T08:16:26Z</time>
</trkpt>
<trkpt lat="44.371798480" lon="5.511495110">
  <ele>757.099975</ele>
<time>2018-04-30T08:17:27Z</time>
</trkpt>
<trkpt lat="44.371716670" lon="5.511448340">
  <ele>759.900024</ele>
<time>2018-04-30T08:17:35Z</time>
</trkpt>
<trkpt lat="44.371635030" lon="5.511425040">
  <ele>760.200012</ele>
<time>2018-04-30T08:17:42Z</time>
</trkpt>
<trkpt lat="44.371551720" lon="5.511396710">
  <ele>759.799987</ele>
<time>2018-04-30T08:17:49Z</time>
</trkpt>
<trkpt lat="44.371466720" lon="5.511381790">
  <ele>759.099975</ele>
<time>2018-04-30T08:17:56Z</time>
</trkpt>
<trkpt lat="44.371383410" lon="5.511358490">
  <ele>758.599975</ele>
<time>2018-04-30T08:18:02Z</time>
</trkpt>
<trkpt lat="44.371305120" lon="5.511350110">
  <ele>758.000000</ele>
<time>2018-04-30T08:18:08Z</time>
</trkpt>
<trkpt lat="44.371218450" lon="5.511325130">
  <ele>757.500000</ele>
<time>2018-04-30T08:18:15Z</time>
</trkpt>
<trkpt lat="44.371136810" lon="5.511285060">
  <ele>757.400024</ele>
<time>2018-04-30T08:18:22Z</time>
</trkpt>
<trkpt lat="44.371063390" lon="5.511240130">
  <ele>758.099975</ele>
<time>2018-04-30T08:18:35Z</time>
</trkpt>
<trkpt lat="44.370983420" lon="5.511201750">
  <ele>758.200012</ele>
<time>2018-04-30T08:18:42Z</time>
</trkpt>
<trkpt lat="44.370913350" lon="5.511125130">
  <ele>757.599975</ele>
<time>2018-04-30T08:18:50Z</time>
</trkpt>
<trkpt lat="44.370890050" lon="5.511025050">
  <ele>757.599975</ele>
<time>2018-04-30T08:19:02Z</time>
</trkpt>
<trkpt lat="44.370846800" lon="5.510928500">
  <ele>758.299987</ele>
<time>2018-04-30T08:19:08Z</time>
</trkpt>
<trkpt lat="44.370780080" lon="5.510866800">
  <ele>759.299987</ele>
<time>2018-04-30T08:19:15Z</time>
</trkpt>
<trkpt lat="44.370705150" lon="5.510806790">
  <ele>759.900024</ele>
<time>2018-04-30T08:19:22Z</time>
</trkpt>
<trkpt lat="44.370625010" lon="5.510755160">
  <ele>761.799987</ele>
<time>2018-04-30T08:20:44Z</time>
</trkpt>
<trkpt lat="44.370540020" lon="5.510725150">
  <ele>763.400024</ele>
<time>2018-04-30T08:20:53Z</time>
</trkpt>
<trkpt lat="44.370463410" lon="5.510678380">
  <ele>764.099975</ele>
<time>2018-04-30T08:21:00Z</time>
</trkpt>
<trkpt lat="44.370383450" lon="5.510660110">
  <ele>764.900024</ele>
<time>2018-04-30T08:21:07Z</time>
</trkpt>
<trkpt lat="44.370301810" lon="5.510643340">
  <ele>765.099975</ele>
<time>2018-04-30T08:21:15Z</time>
</trkpt>
<trkpt lat="44.370216820" lon="5.510615010">
  <ele>765.200012</ele>
<time>2018-04-30T08:21:23Z</time>
</trkpt>
<trkpt lat="44.370135010" lon="5.510596740">
  <ele>766.000000</ele>
<time>2018-04-30T08:21:30Z</time>
</trkpt>
<trkpt lat="44.370046660" lon="5.510575110">
  <ele>766.700012</ele>
<time>2018-04-30T08:21:38Z</time>
</trkpt>
<trkpt lat="44.369973400" lon="5.510525160">
  <ele>767.099975</ele>
<time>2018-04-30T08:21:45Z</time>
</trkpt>
<trkpt lat="44.369910040" lon="5.510450060">
  <ele>768.000000</ele>
<time>2018-04-30T08:21:52Z</time>
</trkpt>
<trkpt lat="44.369860080" lon="5.510353330">
  <ele>768.700012</ele>
<time>2018-04-30T08:21:59Z</time>
</trkpt>
<trkpt lat="44.369801740" lon="5.510266830">
  <ele>770.500000</ele>
<time>2018-04-30T08:22:17Z</time>
</trkpt>
<trkpt lat="44.369731670" lon="5.510190050">
  <ele>770.799987</ele>
<time>2018-04-30T08:22:26Z</time>
</trkpt>
<trkpt lat="44.369675010" lon="5.510115120">
  <ele>770.200012</ele>
<time>2018-04-30T08:22:32Z</time>
</trkpt>
<trkpt lat="44.369620020" lon="5.510036830">
  <ele>770.200012</ele>
<time>2018-04-30T08:22:38Z</time>
</trkpt>
<trkpt lat="44.369576770" lon="5.509933400">
  <ele>767.400024</ele>
<time>2018-04-30T08:23:14Z</time>
</trkpt>
<trkpt lat="44.369531680" lon="5.509831810">
  <ele>767.500000</ele>
<time>2018-04-30T08:23:21Z</time>
</trkpt>
<trkpt lat="44.369483400" lon="5.509738430">
  <ele>767.099975</ele>
<time>2018-04-30T08:23:28Z</time>
</trkpt>
<trkpt lat="44.369453390" lon="5.509621760">
  <ele>767.099975</ele>
<time>2018-04-30T08:23:35Z</time>
</trkpt>
<trkpt lat="44.369426740" lon="5.509510110">
  <ele>766.599975</ele>
<time>2018-04-30T08:23:42Z</time>
</trkpt>
<trkpt lat="44.369426740" lon="5.509391760">
  <ele>766.400024</ele>
<time>2018-04-30T08:23:50Z</time>
</trkpt>
<trkpt lat="44.369346770" lon="5.509358400">
  <ele>767.700012</ele>
<time>2018-04-30T08:23:59Z</time>
</trkpt>
<trkpt lat="44.369263460" lon="5.509373480">
  <ele>769.000000</ele>
<time>2018-04-30T08:24:06Z</time>
</trkpt>
<trkpt lat="44.369185000" lon="5.509361750">
  <ele>769.599975</ele>
<time>2018-04-30T08:24:12Z</time>
</trkpt>
<trkpt lat="44.369106720" lon="5.509330070">
  <ele>769.299987</ele>
<time>2018-04-30T08:24:19Z</time>
</trkpt>
<trkpt lat="44.369028430" lon="5.509285140">
  <ele>769.200012</ele>
<time>2018-04-30T08:24:26Z</time>
</trkpt>
<trkpt lat="44.368948470" lon="5.509248430">
  <ele>769.000000</ele>
<time>2018-04-30T08:24:33Z</time>
</trkpt>
<trkpt lat="44.368870010" lon="5.509215070">
  <ele>769.099975</ele>
<time>2018-04-30T08:24:40Z</time>
</trkpt>
<trkpt lat="44.368788370" lon="5.509186740">
  <ele>769.200012</ele>
<time>2018-04-30T08:24:47Z</time>
</trkpt>
<trkpt lat="44.368703380" lon="5.509170140">
  <ele>769.700012</ele>
<time>2018-04-30T08:24:54Z</time>
</trkpt>
<trkpt lat="44.368623420" lon="5.509133430">
  <ele>771.000000</ele>
<time>2018-04-30T08:25:02Z</time>
</trkpt>
<trkpt lat="44.368538420" lon="5.509133430">
  <ele>771.799987</ele>
<time>2018-04-30T08:25:10Z</time>
</trkpt>
<trkpt lat="44.368453430" lon="5.509118340">
  <ele>772.500000</ele>
<time>2018-04-30T08:25:18Z</time>
</trkpt>
<trkpt lat="44.368385030" lon="5.509056820">
  <ele>772.700012</ele>
<time>2018-04-30T08:25:25Z</time>
</trkpt>
<trkpt lat="44.368320160" lon="5.508975010">
  <ele>773.900024</ele>
<time>2018-04-30T08:25:33Z</time>
</trkpt>
<trkpt lat="44.368235000" lon="5.508953380">
  <ele>775.000000</ele>
<time>2018-04-30T08:25:41Z</time>
</trkpt>
<trkpt lat="44.368151680" lon="5.508948350">
  <ele>777.400024</ele>
<time>2018-04-30T08:25:52Z</time>
</trkpt>
<trkpt lat="44.368068370" lon="5.508945000">
  <ele>779.400024</ele>
<time>2018-04-30T08:26:01Z</time>
</trkpt>
<trkpt lat="44.367980020" lon="5.508961770">
  <ele>779.599975</ele>
<time>2018-04-30T08:26:10Z</time>
</trkpt>
<trkpt lat="44.367903410" lon="5.509005020">
  <ele>779.000000</ele>
<time>2018-04-30T08:26:18Z</time>
</trkpt>
<trkpt lat="44.367830150" lon="5.509056820">
  <ele>777.700012</ele>
<time>2018-04-30T08:26:27Z</time>
</trkpt>
<trkpt lat="44.367780030" lon="5.509148350">
  <ele>776.200012</ele>
<time>2018-04-30T08:26:35Z</time>
</trkpt>
<trkpt lat="44.367716830" lon="5.509235020">
  <ele>775.900024</ele>
<time>2018-04-30T08:26:43Z</time>
</trkpt>
<trkpt lat="44.367668380" lon="5.509321680">
  <ele>776.500000</ele>
<time>2018-04-30T08:26:50Z</time>
</trkpt>
<trkpt lat="44.367611720" lon="5.509418410">
  <ele>778.900024</ele>
<time>2018-04-30T08:26:58Z</time>
</trkpt>
<trkpt lat="44.367563440" lon="5.509511790">
  <ele>781.000000</ele>
<time>2018-04-30T08:27:06Z</time>
</trkpt>
<trkpt lat="44.367496720" lon="5.509570120">
  <ele>782.299987</ele>
<time>2018-04-30T08:27:13Z</time>
</trkpt>
<trkpt lat="44.367423460" lon="5.509623430">
  <ele>783.700012</ele>
<time>2018-04-30T08:27:20Z</time>
</trkpt>
<trkpt lat="44.367351710" lon="5.509660150">
  <ele>784.700012</ele>
<time>2018-04-30T08:27:26Z</time>
</trkpt>
<trkpt lat="44.367271750" lon="5.509701720">
  <ele>785.099975</ele>
<time>2018-04-30T08:27:33Z</time>
</trkpt>
<trkpt lat="44.367191790" lon="5.509738430">
  <ele>785.200012</ele>
<time>2018-04-30T08:27:40Z</time>
</trkpt>
<trkpt lat="44.367108470" lon="5.509766760">
  <ele>785.000000</ele>
<time>2018-04-30T08:27:47Z</time>
</trkpt>
<trkpt lat="44.367030020" lon="5.509788390">
  <ele>785.299987</ele>
<time>2018-04-30T08:27:54Z</time>
</trkpt>
<trkpt lat="44.366946700" lon="5.509771790">
  <ele>786.900024</ele>
<time>2018-04-30T08:28:40Z</time>
</trkpt>
<trkpt lat="44.366863380" lon="5.509780010">
  <ele>786.599975</ele>
<time>2018-04-30T08:28:48Z</time>
</trkpt>
<trkpt lat="44.366778390" lon="5.509798450">
  <ele>786.200012</ele>
<time>2018-04-30T08:28:56Z</time>
</trkpt>
<trkpt lat="44.366696750" lon="5.509843370">
  <ele>786.299987</ele>
<time>2018-04-30T08:29:03Z</time>
</trkpt>
<trkpt lat="44.366608410" lon="5.509865000">
  <ele>786.099975</ele>
<time>2018-04-30T08:29:12Z</time>
</trkpt>
<trkpt lat="44.366526770" lon="5.509858460">
  <ele>786.299987</ele>
<time>2018-04-30T08:29:19Z</time>
</trkpt>
<trkpt lat="44.366455020" lon="5.509808340">
  <ele>785.000000</ele>
<time>2018-04-30T08:29:26Z</time>
</trkpt>
<trkpt lat="44.366395000" lon="5.509736760">
  <ele>784.799987</ele>
<time>2018-04-30T08:29:33Z</time>
</trkpt>
<trkpt lat="44.366323420" lon="5.509680090">
  <ele>784.099975</ele>
<time>2018-04-30T08:29:39Z</time>
</trkpt>
<trkpt lat="44.366256700" lon="5.509596780">
  <ele>783.900024</ele>
<time>2018-04-30T08:29:47Z</time>
</trkpt>
<trkpt lat="44.366178410" lon="5.509551680">
  <ele>784.599975</ele>
<time>2018-04-30T08:29:54Z</time>
</trkpt>
<trkpt lat="44.366096770" lon="5.509530060">
  <ele>785.799987</ele>
<time>2018-04-30T08:30:01Z</time>
</trkpt>
<trkpt lat="44.366015130" lon="5.509513460">
  <ele>786.799987</ele>
<time>2018-04-30T08:30:08Z</time>
</trkpt>
<trkpt lat="44.365953440" lon="5.509430150">
  <ele>789.400024</ele>
<time>2018-04-30T08:30:27Z</time>
</trkpt>
<trkpt lat="44.365868450" lon="5.509408350">
  <ele>789.799987</ele>
<time>2018-04-30T08:30:34Z</time>
</trkpt>
<trkpt lat="44.365800060" lon="5.509350020">
  <ele>790.099975</ele>
<time>2018-04-30T08:30:42Z</time>
</trkpt>
<trkpt lat="44.365726800" lon="5.509303410">
  <ele>790.200012</ele>
<time>2018-04-30T08:30:49Z</time>
</trkpt>
<trkpt lat="44.365653370" lon="5.509251780">
  <ele>790.099975</ele>
<time>2018-04-30T08:30:56Z</time>
</trkpt>
<trkpt lat="44.365578440" lon="5.509190090">
  <ele>790.000000</ele>
<time>2018-04-30T08:31:03Z</time>
</trkpt>
<trkpt lat="44.365500150" lon="5.509170140">
  <ele>790.200012</ele>
<time>2018-04-30T08:31:09Z</time>
</trkpt>
<trkpt lat="44.365420020" lon="5.509130070">
  <ele>791.700012</ele>
<time>2018-04-30T08:31:17Z</time>
</trkpt>
<trkpt lat="44.365341730" lon="5.509106770">
  <ele>792.700012</ele>
<time>2018-04-30T08:31:24Z</time>
</trkpt>
<trkpt lat="44.365263450" lon="5.509068380">
  <ele>795.400024</ele>
<time>2018-04-30T08:31:32Z</time>
</trkpt>
<trkpt lat="44.365185160" lon="5.509048430">
  <ele>798.500000</ele>
<time>2018-04-30T08:31:40Z</time>
</trkpt>
<trkpt lat="44.365096810" lon="5.509041730">
  <ele>800.599975</ele>
<time>2018-04-30T08:31:48Z</time>
</trkpt>
<trkpt lat="44.365010140" lon="5.509038380">
  <ele>804.200012</ele>
<time>2018-04-30T08:31:58Z</time>
</trkpt>
<trkpt lat="44.364946780" lon="5.509118340">
  <ele>807.099975</ele>
<time>2018-04-30T08:32:10Z</time>
</trkpt>
<trkpt lat="44.364861790" lon="5.509156730">
  <ele>808.099975</ele>
<time>2018-04-30T08:32:19Z</time>
</trkpt>
<trkpt lat="44.364780150" lon="5.509140130">
  <ele>807.599975</ele>
<time>2018-04-30T08:32:27Z</time>
</trkpt>
<trkpt lat="44.364698340" lon="5.509101740">
  <ele>807.700012</ele>
<time>2018-04-30T08:32:35Z</time>
</trkpt>
<trkpt lat="44.364623400" lon="5.509051790">
  <ele>808.000000</ele>
<time>2018-04-30T08:32:43Z</time>
</trkpt>
<trkpt lat="44.364543440" lon="5.509016750">
  <ele>808.299987</ele>
<time>2018-04-30T08:32:51Z</time>
</trkpt>
<trkpt lat="44.364460120" lon="5.508981710">
  <ele>808.299987</ele>
<time>2018-04-30T08:32:59Z</time>
</trkpt>
<trkpt lat="44.364373460" lon="5.508960090">
  <ele>810.099975</ele>
<time>2018-04-30T08:33:08Z</time>
</trkpt>
<trkpt lat="44.364286790" lon="5.508935110">
  <ele>811.500000</ele>
<time>2018-04-30T08:33:16Z</time>
</trkpt>
<trkpt lat="44.364206820" lon="5.508915160">
  <ele>812.200012</ele>
<time>2018-04-30T08:33:23Z</time>
</trkpt>
<trkpt lat="44.364120150" lon="5.508883480">
  <ele>814.000000</ele>
<time>2018-04-30T08:33:32Z</time>
</trkpt>
<trkpt lat="44.364035160" lon="5.508843410">
  <ele>814.700012</ele>
<time>2018-04-30T08:33:41Z</time>
</trkpt>
<trkpt lat="44.363950000" lon="5.508856820">
  <ele>816.200012</ele>
<time>2018-04-30T08:33:49Z</time>
</trkpt>
<trkpt lat="44.363861820" lon="5.508873420">
  <ele>819.400024</ele>
<time>2018-04-30T08:34:01Z</time>
</trkpt>
<trkpt lat="44.363781690" lon="5.508886660">
  <ele>820.299987</ele>
<time>2018-04-30T08:34:09Z</time>
</trkpt>
<trkpt lat="44.363706760" lon="5.508935110">
  <ele>821.200012</ele>
<time>2018-04-30T08:34:18Z</time>
</trkpt>
<trkpt lat="44.363628470" lon="5.508975010">
  <ele>822.400024</ele>
<time>2018-04-30T08:34:25Z</time>
</trkpt>
<trkpt lat="44.363540130" lon="5.508973330">
  <ele>822.099975</ele>
<time>2018-04-30T08:34:38Z</time>
</trkpt>
<trkpt lat="44.363451780" lon="5.508991770">
  <ele>821.900024</ele>
<time>2018-04-30T08:34:49Z</time>
</trkpt>
<trkpt lat="44.363373490" lon="5.509025130">
  <ele>820.299987</ele>
<time>2018-04-30T08:34:58Z</time>
</trkpt>
<trkpt lat="44.363301750" lon="5.509071740">
  <ele>820.500000</ele>
<time>2018-04-30T08:35:05Z</time>
</trkpt>
<trkpt lat="44.363215080" lon="5.509093360">
  <ele>821.599975</ele>
<time>2018-04-30T08:35:14Z</time>
</trkpt>
<trkpt lat="44.363130080" lon="5.509088330">
  <ele>823.200012</ele>
<time>2018-04-30T08:35:24Z</time>
</trkpt>
<trkpt lat="44.363056830" lon="5.509036700">
  <ele>823.500000</ele>
<time>2018-04-30T08:35:33Z</time>
</trkpt>
<trkpt lat="44.362975020" lon="5.509008370">
  <ele>821.900024</ele>
<time>2018-04-30T08:35:42Z</time>
</trkpt>
<trkpt lat="44.362886670" lon="5.508990100">
  <ele>822.900024</ele>
<time>2018-04-30T08:35:52Z</time>
</trkpt>
<trkpt lat="44.362798500" lon="5.508986740">
  <ele>824.400024</ele>
<time>2018-04-30T08:36:01Z</time>
</trkpt>
<trkpt lat="44.362720040" lon="5.509021780">
  <ele>827.500000</ele>
<time>2018-04-30T08:36:09Z</time>
</trkpt>
<trkpt lat="44.362633370" lon="5.509035020">
  <ele>831.200012</ele>
<time>2018-04-30T08:36:18Z</time>
</trkpt>
<trkpt lat="44.362546700" lon="5.509021780">
  <ele>833.000000</ele>
<time>2018-04-30T08:36:27Z</time>
</trkpt>
<trkpt lat="44.362466740" lon="5.509015070">
  <ele>834.700012</ele>
<time>2018-04-30T08:36:34Z</time>
</trkpt>
<trkpt lat="44.362380070" lon="5.509016750">
  <ele>835.500000</ele>
<time>2018-04-30T08:36:42Z</time>
</trkpt>
<trkpt lat="44.362293400" lon="5.509018430">
  <ele>836.700012</ele>
<time>2018-04-30T08:36:51Z</time>
</trkpt>
<trkpt lat="44.362246800" lon="5.508918350">
  <ele>837.500000</ele>
<time>2018-04-30T08:37:01Z</time>
</trkpt>
<trkpt lat="44.362255010" lon="5.508793460">
  <ele>837.900024</ele>
<time>2018-04-30T08:37:29Z</time>
</trkpt>
<trkpt lat="44.362285020" lon="5.508686670">
  <ele>839.400024</ele>
<time>2018-04-30T08:38:00Z</time>
</trkpt>
<trkpt lat="44.362298430" lon="5.508565130">
  <ele>840.799987</ele>
<time>2018-04-30T08:38:10Z</time>
</trkpt>
<trkpt lat="44.362316700" lon="5.508443430">
  <ele>842.700012</ele>
<time>2018-04-30T08:38:33Z</time>
</trkpt>
<trkpt lat="44.362330120" lon="5.508336810">
  <ele>842.599975</ele>
<time>2018-04-30T08:38:40Z</time>
</trkpt>
<trkpt lat="44.362355090" lon="5.508233380">
  <ele>842.299987</ele>
<time>2018-04-30T08:38:46Z</time>
</trkpt>
<trkpt lat="44.362390130" lon="5.508120050">
  <ele>842.900024</ele>
<time>2018-04-30T08:38:53Z</time>
</trkpt>
<trkpt lat="44.362413430" lon="5.508003380">
  <ele>844.400024</ele>
<time>2018-04-30T08:39:01Z</time>
</trkpt>
<trkpt lat="44.362450140" lon="5.507893410">
  <ele>845.099975</ele>
<time>2018-04-30T08:39:10Z</time>
</trkpt>
<trkpt lat="44.362463390" lon="5.507785110">
  <ele>846.200012</ele>
<time>2018-04-30T08:39:18Z</time>
</trkpt>
<trkpt lat="44.362465060" lon="5.507666760">
  <ele>845.799987</ele>
<time>2018-04-30T08:39:25Z</time>
</trkpt>
<trkpt lat="44.362471770" lon="5.507541700">
  <ele>846.000000</ele>
<time>2018-04-30T08:39:33Z</time>
</trkpt>
<trkpt lat="44.362480150" lon="5.507418490">
  <ele>845.900024</ele>
<time>2018-04-30T08:39:40Z</time>
</trkpt>
<trkpt lat="44.362510160" lon="5.507308350">
  <ele>845.200012</ele>
<time>2018-04-30T08:39:47Z</time>
</trkpt>
<trkpt lat="44.362551730" lon="5.507201730">
  <ele>844.900024</ele>
<time>2018-04-30T08:39:54Z</time>
</trkpt>
<trkpt lat="44.362570010" lon="5.507085060">
  <ele>845.099975</ele>
<time>2018-04-30T08:40:01Z</time>
</trkpt>
<trkpt lat="44.362548380" lon="5.506970060">
  <ele>845.099975</ele>
<time>2018-04-30T08:40:09Z</time>
</trkpt>
<trkpt lat="44.362525080" lon="5.506858410">
  <ele>844.500000</ele>
<time>2018-04-30T08:40:17Z</time>
</trkpt>
<trkpt lat="44.362490040" lon="5.506748440">
  <ele>842.900024</ele>
<time>2018-04-30T08:40:24Z</time>
</trkpt>
<trkpt lat="44.362473450" lon="5.506633440">
  <ele>841.599975</ele>
<time>2018-04-30T08:40:31Z</time>
</trkpt>
<trkpt lat="44.362478470" lon="5.506523470">
  <ele>841.700012</ele>
<time>2018-04-30T08:40:37Z</time>
</trkpt>
<trkpt lat="44.362486690" lon="5.506406790">
  <ele>841.299987</ele>
<time>2018-04-30T08:40:44Z</time>
</trkpt>
<trkpt lat="44.362473450" lon="5.506285090">
  <ele>841.000000</ele>
<time>2018-04-30T08:40:51Z</time>
</trkpt>
<trkpt lat="44.362458360" lon="5.506166740">
  <ele>840.799987</ele>
<time>2018-04-30T08:40:58Z</time>
</trkpt>
<trkpt lat="44.362421810" lon="5.506065150">
  <ele>839.500000</ele>
<time>2018-04-30T08:41:36Z</time>
</trkpt>
<trkpt lat="44.362393480" lon="5.505965070">
  <ele>840.000000</ele>
<time>2018-04-30T08:41:42Z</time>
</trkpt>
<trkpt lat="44.362351740" lon="5.505858450">
  <ele>839.599975</ele>
<time>2018-04-30T08:41:49Z</time>
</trkpt>
<trkpt lat="44.362286700" lon="5.505780000">
  <ele>838.400024</ele>
<time>2018-04-30T08:41:56Z</time>
</trkpt>
<trkpt lat="44.362221820" lon="5.505703380">
  <ele>839.200012</ele>
<time>2018-04-30T08:42:03Z</time>
</trkpt>
<trkpt lat="44.362150070" lon="5.505645050">
  <ele>841.000000</ele>
<time>2018-04-30T08:42:24Z</time>
</trkpt>
<trkpt lat="44.362093410" lon="5.505563410">
  <ele>841.299987</ele>
<time>2018-04-30T08:42:31Z</time>
</trkpt>
<trkpt lat="44.362051670" lon="5.505476740">
  <ele>840.900024</ele>
<time>2018-04-30T08:42:37Z</time>
</trkpt>
<trkpt lat="44.362028370" lon="5.505368440">
  <ele>839.799987</ele>
<time>2018-04-30T08:42:43Z</time>
</trkpt>
<trkpt lat="44.362001710" lon="5.505258470">
  <ele>840.099975</ele>
<time>2018-04-30T08:42:49Z</time>
</trkpt>
<trkpt lat="44.361955110" lon="5.505156720">
  <ele>839.900024</ele>
<time>2018-04-30T08:42:56Z</time>
</trkpt>
<trkpt lat="44.361891740" lon="5.505080110">
  <ele>840.099975</ele>
<time>2018-04-30T08:43:03Z</time>
</trkpt>
<trkpt lat="44.361850000" lon="5.504981700">
  <ele>839.099975</ele>
<time>2018-04-30T08:43:09Z</time>
</trkpt>
<trkpt lat="44.361821670" lon="5.504866700">
  <ele>838.400024</ele>
<time>2018-04-30T08:43:15Z</time>
</trkpt>
<trkpt lat="44.361768360" lon="5.504773330">
  <ele>838.900024</ele>
<time>2018-04-30T08:43:21Z</time>
</trkpt>
<trkpt lat="44.361728460" lon="5.504676770">
  <ele>839.599975</ele>
<time>2018-04-30T08:43:27Z</time>
</trkpt>
<trkpt lat="44.361693430" lon="5.504561770">
  <ele>838.799987</ele>
<time>2018-04-30T08:43:34Z</time>
</trkpt>
<trkpt lat="44.361663420" lon="5.504448450">
  <ele>839.599975</ele>
<time>2018-04-30T08:43:47Z</time>
</trkpt>
<trkpt lat="44.361645150" lon="5.504328420">
  <ele>840.000000</ele>
<time>2018-04-30T08:43:54Z</time>
</trkpt>
<trkpt lat="44.361635090" lon="5.504216770">
  <ele>840.099975</ele>
<time>2018-04-30T08:44:01Z</time>
</trkpt>
<trkpt lat="44.361600050" lon="5.504101770">
  <ele>837.700012</ele>
<time>2018-04-30T08:44:42Z</time>
</trkpt>
<trkpt lat="44.361531820" lon="5.504023480">
  <ele>837.200012</ele>
<time>2018-04-30T08:44:50Z</time>
</trkpt>
<trkpt lat="44.361481700" lon="5.503935140">
  <ele>836.799987</ele>
<time>2018-04-30T08:44:56Z</time>
</trkpt>
<trkpt lat="44.361441800" lon="5.503830030">
  <ele>836.099975</ele>
<time>2018-04-30T08:45:02Z</time>
</trkpt>
<trkpt lat="44.361421680" lon="5.503721740">
  <ele>836.599975</ele>
<time>2018-04-30T08:45:09Z</time>
</trkpt>
<trkpt lat="44.361380110" lon="5.503623330">
  <ele>837.799987</ele>
<time>2018-04-30T08:45:17Z</time>
</trkpt>
<trkpt lat="44.361310040" lon="5.503546720">
  <ele>839.000000</ele>
<time>2018-04-30T08:45:27Z</time>
</trkpt>
<trkpt lat="44.361240130" lon="5.503473460">
  <ele>840.599975</ele>
<time>2018-04-30T08:45:36Z</time>
</trkpt>
<trkpt lat="44.361166710" lon="5.503431720">
  <ele>841.400024</ele>
<time>2018-04-30T08:45:43Z</time>
</trkpt>
<trkpt lat="44.361091770" lon="5.503371710">
  <ele>841.400024</ele>
<time>2018-04-30T08:45:50Z</time>
</trkpt>
<trkpt lat="44.361036790" lon="5.503293420">
  <ele>841.799987</ele>
<time>2018-04-30T08:46:12Z</time>
</trkpt>
<trkpt lat="44.360986660" lon="5.503200050">
  <ele>842.799987</ele>
<time>2018-04-30T08:47:05Z</time>
</trkpt>
<trkpt lat="44.360928490" lon="5.503106670">
  <ele>842.700012</ele>
<time>2018-04-30T08:47:11Z</time>
</trkpt>
<trkpt lat="44.360883400" lon="5.503013460">
  <ele>842.900024</ele>
<time>2018-04-30T08:47:17Z</time>
</trkpt>
<trkpt lat="44.360846690" lon="5.502916740">
  <ele>843.400024</ele>
<time>2018-04-30T08:47:23Z</time>
</trkpt>
<trkpt lat="44.360818360" lon="5.502808440">
  <ele>843.599975</ele>
<time>2018-04-30T08:47:30Z</time>
</trkpt>
<trkpt lat="44.360788350" lon="5.502693440">
  <ele>843.700012</ele>
<time>2018-04-30T08:47:37Z</time>
</trkpt>
<trkpt lat="44.360766720" lon="5.502591690">
  <ele>843.299987</ele>
<time>2018-04-30T08:47:43Z</time>
</trkpt>
<trkpt lat="44.360728330" lon="5.502493450">
  <ele>843.400024</ele>
<time>2018-04-30T08:47:49Z</time>
</trkpt>
<trkpt lat="44.360688440" lon="5.502401750">
  <ele>844.700012</ele>
<time>2018-04-30T08:47:55Z</time>
</trkpt>
<trkpt lat="44.360635130" lon="5.502303350">
  <ele>845.099975</ele>
<time>2018-04-30T08:48:02Z</time>
</trkpt>
<trkpt lat="44.360591710" lon="5.502196730">
  <ele>845.799987</ele>
<time>2018-04-30T08:48:09Z</time>
</trkpt>
<trkpt lat="44.360555000" lon="5.502088440">
  <ele>842.799987</ele>
<time>2018-04-30T08:48:16Z</time>
</trkpt>
<trkpt lat="44.360536720" lon="5.501976790">
  <ele>839.299987</ele>
<time>2018-04-30T08:48:24Z</time>
</trkpt>
<trkpt lat="44.360485090" lon="5.501878390">
  <ele>840.200012</ele>
<time>2018-04-30T08:48:32Z</time>
</trkpt>
<trkpt lat="44.360463470" lon="5.501775120">
  <ele>841.400024</ele>
<time>2018-04-30T08:48:38Z</time>
</trkpt>
<trkpt lat="44.360440000" lon="5.501661800">
  <ele>841.500000</ele>
<time>2018-04-30T08:48:44Z</time>
</trkpt>
<trkpt lat="44.360393390" lon="5.501568420">
  <ele>841.200012</ele>
<time>2018-04-30T08:48:50Z</time>
</trkpt>
<trkpt lat="44.360343440" lon="5.501478400">
  <ele>840.599975</ele>
<time>2018-04-30T08:48:56Z</time>
</trkpt>
<trkpt lat="44.360291800" lon="5.501391730">
  <ele>840.400024</ele>
<time>2018-04-30T08:49:02Z</time>
</trkpt>
<trkpt lat="44.360241680" lon="5.501303390">
  <ele>840.299987</ele>
<time>2018-04-30T08:49:08Z</time>
</trkpt>
<trkpt lat="44.360200110" lon="5.501208340">
  <ele>841.200012</ele>
<time>2018-04-30T08:49:14Z</time>
</trkpt>
<trkpt lat="44.360165070" lon="5.501111780">
  <ele>841.299987</ele>
<time>2018-04-30T08:49:20Z</time>
</trkpt>
<trkpt lat="44.360133390" lon="5.501013370">
  <ele>841.500000</ele>
<time>2018-04-30T08:49:26Z</time>
</trkpt>
<trkpt lat="44.360108410" lon="5.500906760">
  <ele>841.400024</ele>
<time>2018-04-30T08:49:32Z</time>
</trkpt>
<trkpt lat="44.360098350" lon="5.500793430">
  <ele>841.099975</ele>
<time>2018-04-30T08:49:38Z</time>
</trkpt>
<trkpt lat="44.360098350" lon="5.500671730">
  <ele>842.000000</ele>
<time>2018-04-30T08:49:45Z</time>
</trkpt>
<trkpt lat="44.360108410" lon="5.500558400">
  <ele>843.000000</ele>
<time>2018-04-30T08:49:52Z</time>
</trkpt>
<trkpt lat="44.360111760" lon="5.500436700">
  <ele>843.700012</ele>
<time>2018-04-30T08:49:59Z</time>
</trkpt>
<trkpt lat="44.360123500" lon="5.500320020">
  <ele>844.799987</ele>
<time>2018-04-30T08:50:06Z</time>
</trkpt>
<trkpt lat="44.360133390" lon="5.500195130">
  <ele>846.099975</ele>
<time>2018-04-30T08:50:14Z</time>
</trkpt>
<trkpt lat="44.360145120" lon="5.500075100">
  <ele>845.700012</ele>
<time>2018-04-30T08:50:21Z</time>
</trkpt>
<trkpt lat="44.360146800" lon="5.499953400">
  <ele>846.400024</ele>
<time>2018-04-30T08:50:28Z</time>
</trkpt>
<trkpt lat="44.360161720" lon="5.499836720">
  <ele>845.400024</ele>
<time>2018-04-30T08:50:35Z</time>
</trkpt>
<trkpt lat="44.360165070" lon="5.499711660">
  <ele>845.900024</ele>
<time>2018-04-30T08:50:43Z</time>
</trkpt>
<trkpt lat="44.360156690" lon="5.499593480">
  <ele>846.799987</ele>
<time>2018-04-30T08:50:50Z</time>
</trkpt>
<trkpt lat="44.360140090" lon="5.499481670">
  <ele>847.099975</ele>
<time>2018-04-30T08:50:56Z</time>
</trkpt>
<trkpt lat="44.360123500" lon="5.499358450">
  <ele>849.000000</ele>
<time>2018-04-30T08:51:04Z</time>
</trkpt>
<trkpt lat="44.360103380" lon="5.499248480">
  <ele>848.099975</ele>
<time>2018-04-30T08:51:11Z</time>
</trkpt>
<trkpt lat="44.360073370" lon="5.499131800">
  <ele>848.099975</ele>
<time>2018-04-30T08:51:18Z</time>
</trkpt>
<trkpt lat="44.360008500" lon="5.499058380">
  <ele>848.299987</ele>
<time>2018-04-30T08:51:25Z</time>
</trkpt>
<trkpt lat="44.359953340" lon="5.498978420">
  <ele>849.500000</ele>
<time>2018-04-30T08:51:33Z</time>
</trkpt>
<trkpt lat="44.359898360" lon="5.498890070">
  <ele>849.099975</ele>
<time>2018-04-30T08:51:40Z</time>
</trkpt>
<trkpt lat="44.359851750" lon="5.498805080">
  <ele>848.400024</ele>
<time>2018-04-30T08:51:46Z</time>
</trkpt>
<trkpt lat="44.359808340" lon="5.498701810">
  <ele>848.799987</ele>
<time>2018-04-30T08:51:53Z</time>
</trkpt>
<trkpt lat="44.359758380" lon="5.498611790">
  <ele>849.599975</ele>
<time>2018-04-30T08:52:25Z</time>
</trkpt>
<trkpt lat="44.359695010" lon="5.498533340">
  <ele>850.599975</ele>
<time>2018-04-30T08:52:32Z</time>
</trkpt>
<trkpt lat="44.359628460" lon="5.498455050">
  <ele>851.599975</ele>
<time>2018-04-30T08:52:42Z</time>
</trkpt>
<trkpt lat="44.359565090" lon="5.498378440">
  <ele>852.900024</ele>
<time>2018-04-30T08:52:52Z</time>
</trkpt>
<trkpt lat="44.359485130" lon="5.498348430">
  <ele>854.500000</ele>
<time>2018-04-30T08:53:00Z</time>
</trkpt>
<trkpt lat="44.359426790" lon="5.498270150">
  <ele>854.700012</ele>
<time>2018-04-30T08:53:08Z</time>
</trkpt>
<trkpt lat="44.359385050" lon="5.498163360">
  <ele>856.799987</ele>
<time>2018-04-30T08:53:17Z</time>
</trkpt>
<trkpt lat="44.359315140" lon="5.498103350">
  <ele>858.299987</ele>
<time>2018-04-30T08:53:27Z</time>
</trkpt>
<trkpt lat="44.359273400" lon="5.498006790">
  <ele>859.099975</ele>
<time>2018-04-30T08:53:36Z</time>
</trkpt>
<trkpt lat="44.359240040" lon="5.497890110">
  <ele>861.299987</ele>
<time>2018-04-30T08:53:51Z</time>
</trkpt>
<trkpt lat="44.359196790" lon="5.497781820">
  <ele>865.700012</ele>
<time>2018-04-30T08:54:08Z</time>
</trkpt>
<trkpt lat="44.359116830" lon="5.497725150">
  <ele>868.900024</ele>
<time>2018-04-30T08:54:23Z</time>
</trkpt>
<trkpt lat="44.359056810" lon="5.497643350">
  <ele>871.799987</ele>
<time>2018-04-30T08:54:37Z</time>
</trkpt>
<trkpt lat="44.358986740" lon="5.497570090">
  <ele>874.799987</ele>
<time>2018-04-30T08:54:49Z</time>
</trkpt>
<trkpt lat="44.358908450" lon="5.497536730">
  <ele>877.500000</ele>
<time>2018-04-30T08:54:57Z</time>
</trkpt>
<trkpt lat="44.358833350" lon="5.497473360">
  <ele>879.500000</ele>
<time>2018-04-30T08:55:05Z</time>
</trkpt>
<trkpt lat="44.358781720" lon="5.497373450">
  <ele>881.000000</ele>
<time>2018-04-30T08:55:15Z</time>
</trkpt>
<trkpt lat="44.358741820" lon="5.497271690">
  <ele>881.099975</ele>
<time>2018-04-30T08:55:23Z</time>
</trkpt>
<trkpt lat="44.358700080" lon="5.497165080">
  <ele>882.000000</ele>
<time>2018-04-30T08:55:31Z</time>
</trkpt>
<trkpt lat="44.358665040" lon="5.497066670">
  <ele>882.299987</ele>
<time>2018-04-30T08:55:38Z</time>
</trkpt>
<trkpt lat="44.358613410" lon="5.496978490">
  <ele>881.200012</ele>
<time>2018-04-30T08:55:45Z</time>
</trkpt>
<trkpt lat="44.358593460" lon="5.496868360">
  <ele>880.799987</ele>
<time>2018-04-30T08:55:52Z</time>
</trkpt>
<trkpt lat="44.358590110" lon="5.496756710">
  <ele>879.799987</ele>
<time>2018-04-30T08:55:59Z</time>
</trkpt>
<trkpt lat="44.358566810" lon="5.496645060">
  <ele>879.799987</ele>
<time>2018-04-30T08:56:05Z</time>
</trkpt>
<trkpt lat="44.358541660" lon="5.496526710">
  <ele>880.500000</ele>
<time>2018-04-30T08:56:12Z</time>
</trkpt>
<trkpt lat="44.358508470" lon="5.496411710">
  <ele>885.400024</ele>
<time>2018-04-30T08:57:32Z</time>
</trkpt>
<trkpt lat="44.358496740" lon="5.496290000">
  <ele>885.599975</ele>
<time>2018-04-30T08:57:40Z</time>
</trkpt>
<trkpt lat="44.358483490" lon="5.496171820">
  <ele>885.200012</ele>
<time>2018-04-30T08:57:48Z</time>
</trkpt>
<trkpt lat="44.358480140" lon="5.496058330">
  <ele>885.299987</ele>
<time>2018-04-30T08:57:55Z</time>
</trkpt>
<trkpt lat="44.358458350" lon="5.495951710">
  <ele>884.599975</ele>
<time>2018-04-30T08:58:02Z</time>
</trkpt>
<trkpt lat="44.358456670" lon="5.495831680">
  <ele>883.900024</ele>
<time>2018-04-30T08:58:09Z</time>
</trkpt>
<trkpt lat="44.358435040" lon="5.495711820">
  <ele>882.900024</ele>
<time>2018-04-30T08:58:18Z</time>
</trkpt>
<trkpt lat="44.358431690" lon="5.495586760">
  <ele>884.500000</ele>
<time>2018-04-30T08:58:27Z</time>
</trkpt>
<trkpt lat="44.358430020" lon="5.495465060">
  <ele>885.500000</ele>
<time>2018-04-30T08:58:36Z</time>
</trkpt>
<trkpt lat="44.358415100" lon="5.495348380">
  <ele>885.799987</ele>
<time>2018-04-30T08:58:44Z</time>
</trkpt>
<trkpt lat="44.358403360" lon="5.495230030">
  <ele>887.700012</ele>
<time>2018-04-30T08:58:53Z</time>
</trkpt>
<trkpt lat="44.358391790" lon="5.495118380">
  <ele>888.500000</ele>
<time>2018-04-30T08:59:00Z</time>
</trkpt>
<trkpt lat="44.358386760" lon="5.495000030">
  <ele>888.599975</ele>
<time>2018-04-30T08:59:07Z</time>
</trkpt>
<trkpt lat="44.358381740" lon="5.494881680">
  <ele>888.200012</ele>
<time>2018-04-30T08:59:27Z</time>
</trkpt>
<trkpt lat="44.358388440" lon="5.494763490">
  <ele>887.700012</ele>
<time>2018-04-30T08:59:34Z</time>
</trkpt>
<trkpt lat="44.358395150" lon="5.494646820">
  <ele>887.900024</ele>
<time>2018-04-30T08:59:40Z</time>
</trkpt>
<trkpt lat="44.358398330" lon="5.494531820">
  <ele>887.200012</ele>
<time>2018-04-30T08:59:47Z</time>
</trkpt>
<trkpt lat="44.358383410" lon="5.494408430">
  <ele>885.799987</ele>
<time>2018-04-30T08:59:55Z</time>
</trkpt>
<trkpt lat="44.358365140" lon="5.494290080">
  <ele>885.099975</ele>
<time>2018-04-30T09:00:02Z</time>
</trkpt>
<trkpt lat="44.358328430" lon="5.494180110">
  <ele>886.099975</ele>
<time>2018-04-30T09:00:17Z</time>
</trkpt>
<trkpt lat="44.358310150" lon="5.494071820">
  <ele>886.500000</ele>
<time>2018-04-30T09:00:23Z</time>
</trkpt>
<trkpt lat="44.358310150" lon="5.493960000">
  <ele>885.099975</ele>
<time>2018-04-30T09:00:30Z</time>
</trkpt>
<trkpt lat="44.358271770" lon="5.493861770">
  <ele>884.500000</ele>
<time>2018-04-30T09:00:40Z</time>
</trkpt>
<trkpt lat="44.358336810" lon="5.493948440">
  <ele>877.900024</ele>
<time>2018-04-30T09:01:12Z</time>
</trkpt>
<trkpt lat="44.358416770" lon="5.494000070">
  <ele>874.900024</ele>
<time>2018-04-30T09:01:25Z</time>
</trkpt>
<trkpt lat="44.358445100" lon="5.494115070">
  <ele>869.500000</ele>
<time>2018-04-30T09:01:35Z</time>
</trkpt>
<trkpt lat="44.358460020" lon="5.494233420">
  <ele>871.700012</ele>
<time>2018-04-30T09:01:44Z</time>
</trkpt>
<trkpt lat="44.358503440" lon="5.494321770">
  <ele>872.099975</ele>
<time>2018-04-30T09:01:52Z</time>
</trkpt>
<trkpt lat="44.358521710" lon="5.494441790">
  <ele>874.200012</ele>
<time>2018-04-30T09:02:01Z</time>
</trkpt>
<trkpt lat="44.358580050" lon="5.494516730">
  <ele>876.599975</ele>
<time>2018-04-30T09:02:07Z</time>
</trkpt>
<trkpt lat="44.358648450" lon="5.494576740">
  <ele>876.900024</ele>
<time>2018-04-30T09:02:14Z</time>
</trkpt>
<trkpt lat="44.358706790" lon="5.494670120">
  <ele>876.799987</ele>
<time>2018-04-30T09:02:30Z</time>
</trkpt>
<trkpt lat="44.358750040" lon="5.494775060">
  <ele>885.900024</ele>
<time>2018-04-30T09:02:48Z</time>
</trkpt>
<trkpt lat="44.358761770" lon="5.494893410">
  <ele>894.599975</ele>
<time>2018-04-30T09:03:06Z</time>
</trkpt>
<trkpt lat="44.358775010" lon="5.495005060">
  <ele>897.599975</ele>
<time>2018-04-30T09:03:15Z</time>
</trkpt>
<trkpt lat="44.358838380" lon="5.495088370">
  <ele>901.099975</ele>
<time>2018-04-30T09:03:25Z</time>
</trkpt>
<trkpt lat="44.358910130" lon="5.495153420">
  <ele>909.500000</ele>
<time>2018-04-30T09:03:46Z</time>
</trkpt>
<trkpt lat="44.358951710" lon="5.495256680">
  <ele>912.700012</ele>
<time>2018-04-30T09:04:01Z</time>
</trkpt>
<trkpt lat="44.359010040" lon="5.495345030">
  <ele>916.799987</ele>
<time>2018-04-30T09:04:19Z</time>
</trkpt>
<trkpt lat="44.359030160" lon="5.495465060">
  <ele>920.799987</ele>
<time>2018-04-30T09:04:35Z</time>
</trkpt>
<trkpt lat="44.359118340" lon="5.495488360">
  <ele>929.200012</ele>
<time>2018-04-30T09:05:20Z</time>
</trkpt>
<trkpt lat="44.359175000" lon="5.495581730">
  <ele>932.799987</ele>
<time>2018-04-30T09:06:46Z</time>
</trkpt>
<trkpt lat="44.359250100" lon="5.495623480">
  <ele>932.400024</ele>
<time>2018-04-30T09:06:58Z</time>
</trkpt>
<trkpt lat="44.359298380" lon="5.495725060">
  <ele>932.200012</ele>
<time>2018-04-30T09:07:05Z</time>
</trkpt>
<trkpt lat="44.359320010" lon="5.495830010">
  <ele>930.000000</ele>
<time>2018-04-30T09:07:11Z</time>
</trkpt>
<trkpt lat="44.359321680" lon="5.495955060">
  <ele>930.799987</ele>
<time>2018-04-30T09:07:17Z</time>
</trkpt>
<trkpt lat="44.359308440" lon="5.496065030">
  <ele>930.700012</ele>
<time>2018-04-30T09:07:23Z</time>
</trkpt>
<trkpt lat="44.359325040" lon="5.496173330">
  <ele>930.700012</ele>
<time>2018-04-30T09:07:29Z</time>
</trkpt>
<trkpt lat="44.359375160" lon="5.496263350">
  <ele>930.599975</ele>
<time>2018-04-30T09:07:35Z</time>
</trkpt>
<trkpt lat="44.359421760" lon="5.496356720">
  <ele>927.900024</ele>
<time>2018-04-30T09:07:41Z</time>
</trkpt>
<trkpt lat="44.359446740" lon="5.496475080">
  <ele>926.299987</ele>
<time>2018-04-30T09:07:49Z</time>
</trkpt>
<trkpt lat="44.359485130" lon="5.496568450">
  <ele>924.500000</ele>
<time>2018-04-30T09:07:55Z</time>
</trkpt>
<trkpt lat="44.359546820" lon="5.496646740">
  <ele>922.500000</ele>
<time>2018-04-30T09:08:01Z</time>
</trkpt>
<trkpt lat="44.359606670" lon="5.496726700">
  <ele>918.299987</ele>
<time>2018-04-30T09:08:08Z</time>
</trkpt>
<trkpt lat="44.359666680" lon="5.496801800">
  <ele>915.900024</ele>
<time>2018-04-30T09:08:15Z</time>
</trkpt>
<trkpt lat="44.359743460" lon="5.496856790">
  <ele>914.000000</ele>
<time>2018-04-30T09:08:22Z</time>
</trkpt>
<trkpt lat="44.359800120" lon="5.496943460">
  <ele>912.799987</ele>
<time>2018-04-30T09:08:30Z</time>
</trkpt>
<trkpt lat="44.359865000" lon="5.497010010">
  <ele>910.799987</ele>
<time>2018-04-30T09:08:36Z</time>
</trkpt>
<trkpt lat="44.359946800" lon="5.497021740">
  <ele>911.200012</ele>
<time>2018-04-30T09:08:42Z</time>
</trkpt>
<trkpt lat="44.360030120" lon="5.497011690">
  <ele>913.099975</ele>
<time>2018-04-30T09:08:49Z</time>
</trkpt>
<trkpt lat="44.360091810" lon="5.497090140">
  <ele>912.099975</ele>
<time>2018-04-30T09:08:56Z</time>
</trkpt>
<trkpt lat="44.360151830" lon="5.497180160">
  <ele>910.900024</ele>
<time>2018-04-30T09:09:04Z</time>
</trkpt>
<trkpt lat="44.360216700" lon="5.497251740">
  <ele>909.799987</ele>
<time>2018-04-30T09:09:10Z</time>
</trkpt>
<trkpt lat="44.360251740" lon="5.497363390">
  <ele>909.099975</ele>
<time>2018-04-30T09:09:18Z</time>
</trkpt>
<trkpt lat="44.360278390" lon="5.497483420">
  <ele>909.200012</ele>
<time>2018-04-30T09:09:25Z</time>
</trkpt>
<trkpt lat="44.360323490" lon="5.497581820">
  <ele>908.299987</ele>
<time>2018-04-30T09:09:32Z</time>
</trkpt>
<trkpt lat="44.360378470" lon="5.497665140">
  <ele>908.799987</ele>
<time>2018-04-30T09:09:38Z</time>
</trkpt>
<trkpt lat="44.360426750" lon="5.497763380">
  <ele>908.900024</ele>
<time>2018-04-30T09:09:44Z</time>
</trkpt>
<trkpt lat="44.360491800" lon="5.497836800">
  <ele>908.500000</ele>
<time>2018-04-30T09:09:51Z</time>
</trkpt>
<trkpt lat="44.360560020" lon="5.497918440">
  <ele>907.700012</ele>
<time>2018-04-30T09:09:58Z</time>
</trkpt>
<trkpt lat="44.360600090" lon="5.498023380">
  <ele>907.500000</ele>
<time>2018-04-30T09:10:05Z</time>
</trkpt>
<trkpt lat="44.360655080" lon="5.498121790">
  <ele>908.900024</ele>
<time>2018-04-30T09:10:12Z</time>
</trkpt>
<trkpt lat="44.360686760" lon="5.498238460">
  <ele>908.500000</ele>
<time>2018-04-30T09:10:29Z</time>
</trkpt>
<trkpt lat="44.360718440" lon="5.498353460">
  <ele>908.400024</ele>
<time>2018-04-30T09:10:36Z</time>
</trkpt>
<trkpt lat="44.360791700" lon="5.498401740">
  <ele>909.000000</ele>
<time>2018-04-30T09:10:42Z</time>
</trkpt>
<trkpt lat="44.360866800" lon="5.498438450">
  <ele>910.000000</ele>
<time>2018-04-30T09:10:48Z</time>
</trkpt>
<trkpt lat="44.360938380" lon="5.498508360">
  <ele>908.900024</ele>
<time>2018-04-30T09:10:56Z</time>
</trkpt>
<trkpt lat="44.360973420" lon="5.498616820">
  <ele>908.299987</ele>
<time>2018-04-30T09:11:03Z</time>
</trkpt>
<trkpt lat="44.361036790" lon="5.498695110">
  <ele>908.400024</ele>
<time>2018-04-30T09:11:10Z</time>
</trkpt>
<trkpt lat="44.361071820" lon="5.498791670">
  <ele>908.500000</ele>
<time>2018-04-30T09:11:16Z</time>
</trkpt>
<trkpt lat="44.361123460" lon="5.498885040">
  <ele>908.500000</ele>
<time>2018-04-30T09:11:22Z</time>
</trkpt>
<trkpt lat="44.361168380" lon="5.498985120">
  <ele>909.099975</ele>
<time>2018-04-30T09:11:29Z</time>
</trkpt>
<trkpt lat="44.361183470" lon="5.499093420">
  <ele>910.000000</ele>
<time>2018-04-30T09:11:35Z</time>
</trkpt>
<trkpt lat="44.361183470" lon="5.499203390">
  <ele>911.400024</ele>
<time>2018-04-30T09:11:41Z</time>
</trkpt>
<trkpt lat="44.361176770" lon="5.499320060">
  <ele>912.799987</ele>
<time>2018-04-30T09:11:48Z</time>
</trkpt>
<trkpt lat="44.361196710" lon="5.499440090">
  <ele>913.599975</ele>
<time>2018-04-30T09:11:56Z</time>
</trkpt>
<trkpt lat="44.361246670" lon="5.499535140">
  <ele>914.000000</ele>
<time>2018-04-30T09:12:03Z</time>
</trkpt>
<trkpt lat="44.361240130" lon="5.499648470">
  <ele>915.500000</ele>
<time>2018-04-30T09:12:10Z</time>
</trkpt>
<trkpt lat="44.361281710" lon="5.499758440">
  <ele>917.299987</ele>
<time>2018-04-30T09:12:18Z</time>
</trkpt>
<trkpt lat="44.361363350" lon="5.499793470">
  <ele>918.299987</ele>
<time>2018-04-30T09:12:25Z</time>
</trkpt>
<trkpt lat="44.361438450" lon="5.499843430">
  <ele>917.900024</ele>
<time>2018-04-30T09:12:32Z</time>
</trkpt>
<trkpt lat="44.361498460" lon="5.499918360">
  <ele>917.799987</ele>
<time>2018-04-30T09:12:39Z</time>
</trkpt>
<trkpt lat="44.361551770" lon="5.500016770">
  <ele>917.900024</ele>
<time>2018-04-30T09:12:56Z</time>
</trkpt>
<trkpt lat="44.361615140" lon="5.500086670">
  <ele>917.799987</ele>
<time>2018-04-30T09:13:04Z</time>
</trkpt>
<trkpt lat="44.361688400" lon="5.500143330">
  <ele>918.299987</ele>
<time>2018-04-30T09:13:12Z</time>
</trkpt>
<trkpt lat="44.361753440" lon="5.500218430">
  <ele>918.799987</ele>
<time>2018-04-30T09:13:20Z</time>
</trkpt>
<trkpt lat="44.361815130" lon="5.500303430">
  <ele>918.500000</ele>
<time>2018-04-30T09:13:30Z</time>
</trkpt>
<trkpt lat="44.361898450" lon="5.500331760">
  <ele>919.799987</ele>
<time>2018-04-30T09:13:38Z</time>
</trkpt>
<trkpt lat="44.361976730" lon="5.500366790">
  <ele>921.500000</ele>
<time>2018-04-30T09:13:45Z</time>
</trkpt>
<trkpt lat="44.362060050" lon="5.500411720">
  <ele>921.799987</ele>
<time>2018-04-30T09:13:54Z</time>
</trkpt>
<trkpt lat="44.362126770" lon="5.500490010">
  <ele>921.200012</ele>
<time>2018-04-30T09:14:02Z</time>
</trkpt>
<trkpt lat="44.362191810" lon="5.500573490">
  <ele>920.700012</ele>
<time>2018-04-30T09:14:09Z</time>
</trkpt>
<trkpt lat="44.362275130" lon="5.500615070">
  <ele>920.299987</ele>
<time>2018-04-30T09:14:16Z</time>
</trkpt>
<trkpt lat="44.362346710" lon="5.500668380">
  <ele>919.599975</ele>
<time>2018-04-30T09:14:23Z</time>
</trkpt>
<trkpt lat="44.362421810" lon="5.500733420">
  <ele>919.099975</ele>
<time>2018-04-30T09:14:31Z</time>
</trkpt>
<trkpt lat="44.362500100" lon="5.500765100">
  <ele>918.299987</ele>
<time>2018-04-30T09:14:38Z</time>
</trkpt>
<trkpt lat="44.362551730" lon="5.500851770">
  <ele>918.400024</ele>
<time>2018-04-30T09:14:43Z</time>
</trkpt>
<trkpt lat="44.362620130" lon="5.500931730">
  <ele>918.200012</ele>
<time>2018-04-30T09:14:52Z</time>
</trkpt>
<trkpt lat="44.362686680" lon="5.501001810">
  <ele>918.900024</ele>
<time>2018-04-30T09:14:59Z</time>
</trkpt>
<trkpt lat="44.362745020" lon="5.501086800">
  <ele>920.400024</ele>
<time>2018-04-30T09:15:07Z</time>
</trkpt>
<trkpt lat="44.362813420" lon="5.501148490">
  <ele>921.400024</ele>
<time>2018-04-30T09:15:14Z</time>
</trkpt>
<trkpt lat="44.362878460" lon="5.501211690">
  <ele>920.400024</ele>
<time>2018-04-30T09:15:20Z</time>
</trkpt>
<trkpt lat="44.362930090" lon="5.501305060">
  <ele>920.200012</ele>
<time>2018-04-30T09:15:28Z</time>
</trkpt>
<trkpt lat="44.362961780" lon="5.501411680">
  <ele>919.099975</ele>
<time>2018-04-30T09:15:36Z</time>
</trkpt>
<trkpt lat="44.363036710" lon="5.501465160">
  <ele>918.700012</ele>
<time>2018-04-30T09:15:44Z</time>
</trkpt>
<trkpt lat="44.363116670" lon="5.501516790">
  <ele>919.099975</ele>
<time>2018-04-30T09:15:52Z</time>
</trkpt>
<trkpt lat="44.363186750" lon="5.501580160">
  <ele>919.400024</ele>
<time>2018-04-30T09:15:58Z</time>
</trkpt>
<trkpt lat="44.363260000" lon="5.501621730">
  <ele>920.599975</ele>
<time>2018-04-30T09:16:05Z</time>
</trkpt>
<trkpt lat="44.363338460" lon="5.501650060">
  <ele>919.500000</ele>
<time>2018-04-30T09:16:11Z</time>
</trkpt>
<trkpt lat="44.363406690" lon="5.501728350">
  <ele>920.099975</ele>
<time>2018-04-30T09:16:19Z</time>
</trkpt>
<trkpt lat="44.363485140" lon="5.501778470">
  <ele>921.799987</ele>
<time>2018-04-30T09:16:26Z</time>
</trkpt>
<trkpt lat="44.363565100" lon="5.501791720">
  <ele>923.000000</ele>
<time>2018-04-30T09:16:33Z</time>
</trkpt>
<trkpt lat="44.363638360" lon="5.501785010">
  <ele>922.700012</ele>
<time>2018-04-30T09:16:38Z</time>
</trkpt>
<trkpt lat="44.363720000" lon="5.501821730">
  <ele>922.599975</ele>
<time>2018-04-30T09:16:45Z</time>
</trkpt>
<trkpt lat="44.363791750" lon="5.501876710">
  <ele>922.200012</ele>
<time>2018-04-30T09:16:51Z</time>
</trkpt>
<trkpt lat="44.363875070" lon="5.501913420">
  <ele>923.099975</ele>
<time>2018-04-30T09:16:59Z</time>
</trkpt>
<trkpt lat="44.363953350" lon="5.501935050">
  <ele>923.200012</ele>
<time>2018-04-30T09:17:06Z</time>
</trkpt>
<trkpt lat="44.364031810" lon="5.501951810">
  <ele>924.099975</ele>
<time>2018-04-30T09:17:12Z</time>
</trkpt>
<trkpt lat="44.364116800" lon="5.501976790">
  <ele>924.500000</ele>
<time>2018-04-30T09:17:19Z</time>
</trkpt>
<trkpt lat="44.364196760" lon="5.502023390">
  <ele>924.200012</ele>
<time>2018-04-30T09:17:26Z</time>
</trkpt>
<trkpt lat="44.364280080" lon="5.502048370">
  <ele>923.599975</ele>
<time>2018-04-30T09:17:33Z</time>
</trkpt>
<trkpt lat="44.364361720" lon="5.502075030">
  <ele>923.200012</ele>
<time>2018-04-30T09:17:40Z</time>
</trkpt>
<trkpt lat="44.364448390" lon="5.502093470">
  <ele>924.000000</ele>
<time>2018-04-30T09:17:49Z</time>
</trkpt>
<trkpt lat="44.364508400" lon="5.502163370">
  <ele>924.400024</ele>
<time>2018-04-30T09:17:54Z</time>
</trkpt>
<trkpt lat="44.364593400" lon="5.502201760">
  <ele>926.299987</ele>
<time>2018-04-30T09:18:01Z</time>
</trkpt>
<trkpt lat="44.364671680" lon="5.502246690">
  <ele>927.299987</ele>
<time>2018-04-30T09:18:08Z</time>
</trkpt>
<trkpt lat="44.364760030" lon="5.502268480">
  <ele>927.900024</ele>
<time>2018-04-30T09:18:16Z</time>
</trkpt>
<trkpt lat="44.364838480" lon="5.502273340">
  <ele>928.700012</ele>
<time>2018-04-30T09:18:23Z</time>
</trkpt>
<trkpt lat="44.364926830" lon="5.502268480">
  <ele>927.599975</ele>
<time>2018-04-30T09:18:30Z</time>
</trkpt>
<trkpt lat="44.365015010" lon="5.502270160">
  <ele>928.500000</ele>
<time>2018-04-30T09:18:58Z</time>
</trkpt>
<trkpt lat="44.365086760" lon="5.502321790">
  <ele>927.200012</ele>
<time>2018-04-30T09:19:04Z</time>
</trkpt>
<trkpt lat="44.365161690" lon="5.502351800">
  <ele>927.900024</ele>
<time>2018-04-30T09:19:12Z</time>
</trkpt>
<trkpt lat="44.365238470" lon="5.502400080">
  <ele>927.000000</ele>
<time>2018-04-30T09:19:19Z</time>
</trkpt>
<trkpt lat="44.365313400" lon="5.502435110">
  <ele>927.700012</ele>
<time>2018-04-30T09:19:26Z</time>
</trkpt>
<trkpt lat="44.365390010" lon="5.502468470">
  <ele>927.200012</ele>
<time>2018-04-30T09:19:33Z</time>
</trkpt>
<trkpt lat="44.365461760" lon="5.502508370">
  <ele>927.299987</ele>
<time>2018-04-30T09:19:37Z</time>
</trkpt>
<trkpt lat="44.365545080" lon="5.502538380">
  <ele>926.599975</ele>
<time>2018-04-30T09:19:44Z</time>
</trkpt>
<trkpt lat="44.365623360" lon="5.502560000">
  <ele>925.400024</ele>
<time>2018-04-30T09:19:50Z</time>
</trkpt>
<trkpt lat="44.365710030" lon="5.502560000">
  <ele>925.000000</ele>
<time>2018-04-30T09:19:57Z</time>
</trkpt>
<trkpt lat="44.365793350" lon="5.502571740">
  <ele>924.200012</ele>
<time>2018-04-30T09:20:03Z</time>
</trkpt>
<trkpt lat="44.365875160" lon="5.502603420">
  <ele>925.099975</ele>
<time>2018-04-30T09:20:10Z</time>
</trkpt>
<trkpt lat="44.365965010" lon="5.502608450">
  <ele>925.799987</ele>
<time>2018-04-30T09:20:17Z</time>
</trkpt>
<trkpt lat="44.366048490" lon="5.502618340">
  <ele>926.799987</ele>
<time>2018-04-30T09:20:24Z</time>
</trkpt>
<trkpt lat="44.366130130" lon="5.502623370">
  <ele>925.799987</ele>
<time>2018-04-30T09:20:31Z</time>
</trkpt>
<trkpt lat="44.366213450" lon="5.502628400">
  <ele>925.900024</ele>
<time>2018-04-30T09:20:39Z</time>
</trkpt>
<trkpt lat="44.366301800" lon="5.502636780">
  <ele>925.700012</ele>
<time>2018-04-30T09:20:46Z</time>
</trkpt>
<trkpt lat="44.366386790" lon="5.502633430">
  <ele>925.500000</ele>
<time>2018-04-30T09:20:53Z</time>
</trkpt>
<trkpt lat="44.366471780" lon="5.502638460">
  <ele>923.700012</ele>
<time>2018-04-30T09:20:59Z</time>
</trkpt>
<trkpt lat="44.366550070" lon="5.502638460">
  <ele>922.299987</ele>
<time>2018-04-30T09:21:03Z</time>
</trkpt>
<trkpt lat="44.366616790" lon="5.502678360">
  <ele>920.400024</ele>
<time>2018-04-30T09:21:07Z</time>
</trkpt>
<trkpt lat="44.366690050" lon="5.502703330">
  <ele>917.200012</ele>
<time>2018-04-30T09:21:13Z</time>
</trkpt>
<trkpt lat="44.366770010" lon="5.502733340">
  <ele>913.799987</ele>
<time>2018-04-30T09:21:19Z</time>
</trkpt>
<trkpt lat="44.366855000" lon="5.502735020">
  <ele>911.500000</ele>
<time>2018-04-30T09:21:25Z</time>
</trkpt>
<trkpt lat="44.366933460" lon="5.502751780">
  <ele>909.400024</ele>
<time>2018-04-30T09:21:32Z</time>
</trkpt>
<trkpt lat="44.367008390" lon="5.502771730">
  <ele>909.799987</ele>
<time>2018-04-30T09:21:37Z</time>
</trkpt>
<trkpt lat="44.367096740" lon="5.502776760">
  <ele>910.900024</ele>
<time>2018-04-30T09:21:44Z</time>
</trkpt>
<trkpt lat="44.367176700" lon="5.502760000">
  <ele>908.799987</ele>
<time>2018-04-30T09:21:51Z</time>
</trkpt>
<trkpt lat="44.367261690" lon="5.502761670">
  <ele>909.400024</ele>
<time>2018-04-30T09:21:58Z</time>
</trkpt>
<trkpt lat="44.367345010" lon="5.502786820">
  <ele>909.599975</ele>
<time>2018-04-30T09:22:05Z</time>
</trkpt>
<trkpt lat="44.367421790" lon="5.502823360">
  <ele>909.299987</ele>
<time>2018-04-30T09:22:12Z</time>
</trkpt>
<trkpt lat="44.367500070" lon="5.502865100">
  <ele>909.200012</ele>
<time>2018-04-30T09:22:18Z</time>
</trkpt>
<trkpt lat="44.367568470" lon="5.502925120">
  <ele>907.099975</ele>
<time>2018-04-30T09:22:24Z</time>
</trkpt>
<trkpt lat="44.367628480" lon="5.502995020">
  <ele>905.599975</ele>
<time>2018-04-30T09:22:30Z</time>
</trkpt>
<trkpt lat="44.367688330" lon="5.503075160">
  <ele>905.000000</ele>
<time>2018-04-30T09:22:36Z</time>
</trkpt>
<trkpt lat="44.367745160" lon="5.503170040">
  <ele>904.099975</ele>
<time>2018-04-30T09:22:43Z</time>
</trkpt>
<trkpt lat="44.367801820" lon="5.503260060">
  <ele>903.000000</ele>
<time>2018-04-30T09:22:50Z</time>
</trkpt>
<trkpt lat="44.367850100" lon="5.503365000">
  <ele>901.000000</ele>
<time>2018-04-30T09:22:58Z</time>
</trkpt>
<trkpt lat="44.367911790" lon="5.503451670">
  <ele>899.099975</ele>
<time>2018-04-30T09:23:06Z</time>
</trkpt>
<trkpt lat="44.367961750" lon="5.503553430">
  <ele>896.799987</ele>
<time>2018-04-30T09:23:14Z</time>
</trkpt>
<trkpt lat="44.367995110" lon="5.503668430">
  <ele>894.799987</ele>
<time>2018-04-30T09:23:22Z</time>
</trkpt>
<trkpt lat="44.368050090" lon="5.503758450">
  <ele>891.700012</ele>
<time>2018-04-30T09:23:31Z</time>
</trkpt>
<trkpt lat="44.368098370" lon="5.503845120">
  <ele>889.599975</ele>
<time>2018-04-30T09:23:39Z</time>
</trkpt>
<trkpt lat="44.368128380" lon="5.503953410">
  <ele>886.900024</ele>
<time>2018-04-30T09:23:48Z</time>
</trkpt>
<trkpt lat="44.368170120" lon="5.504051810">
  <ele>884.799987</ele>
<time>2018-04-30T09:23:55Z</time>
</trkpt>
<trkpt lat="44.368205160" lon="5.504165140">
  <ele>883.000000</ele>
<time>2018-04-30T09:24:03Z</time>
</trkpt>
<trkpt lat="44.368216730" lon="5.504288350">
  <ele>879.200012</ele>
<time>2018-04-30T09:24:12Z</time>
</trkpt>
<trkpt lat="44.368223430" lon="5.504401680">
  <ele>877.400024</ele>
<time>2018-04-30T09:24:20Z</time>
</trkpt>
<trkpt lat="44.368240030" lon="5.504518350">
  <ele>876.099975</ele>
<time>2018-04-30T09:24:27Z</time>
</trkpt>
<trkpt lat="44.368218400" lon="5.504631670">
  <ele>873.799987</ele>
<time>2018-04-30T09:24:35Z</time>
</trkpt>
<trkpt lat="44.368230140" lon="5.504748350">
  <ele>870.599975</ele>
<time>2018-04-30T09:24:44Z</time>
</trkpt>
<trkpt lat="44.368240030" lon="5.504865030">
  <ele>869.000000</ele>
<time>2018-04-30T09:24:52Z</time>
</trkpt>
<trkpt lat="44.368251760" lon="5.504985060">
  <ele>869.099975</ele>
<time>2018-04-30T09:25:00Z</time>
</trkpt>
<trkpt lat="44.368250090" lon="5.505103410">
  <ele>868.099975</ele>
<time>2018-04-30T09:25:08Z</time>
</trkpt>
<trkpt lat="44.368266680" lon="5.505216730">
  <ele>865.099975</ele>
<time>2018-04-30T09:25:17Z</time>
</trkpt>
<trkpt lat="44.368331730" lon="5.505288480">
  <ele>863.700012</ele>
<time>2018-04-30T09:25:26Z</time>
</trkpt>
<trkpt lat="44.368386710" lon="5.505383360">
  <ele>860.299987</ele>
<time>2018-04-30T09:25:37Z</time>
</trkpt>
<trkpt lat="44.368458460" lon="5.505450080">
  <ele>857.200012</ele>
<time>2018-04-30T09:25:47Z</time>
</trkpt>
<trkpt lat="44.368506740" lon="5.505541780">
  <ele>854.200012</ele>
<time>2018-04-30T09:25:56Z</time>
</trkpt>
<trkpt lat="44.368571780" lon="5.505618390">
  <ele>852.500000</ele>
<time>2018-04-30T09:26:05Z</time>
</trkpt>
<trkpt lat="44.368620060" lon="5.505713440">
  <ele>849.299987</ele>
<time>2018-04-30T09:26:14Z</time>
</trkpt>
<trkpt lat="44.368670020" lon="5.505805140">
  <ele>846.700012</ele>
<time>2018-04-30T09:26:22Z</time>
</trkpt>
<trkpt lat="44.368731710" lon="5.505893490">
  <ele>844.700012</ele>
<time>2018-04-30T09:26:32Z</time>
</trkpt>
<trkpt lat="44.368795080" lon="5.505970100">
  <ele>843.299987</ele>
<time>2018-04-30T09:26:40Z</time>
</trkpt>
<trkpt lat="44.368870010" lon="5.506035140">
  <ele>842.400024</ele>
<time>2018-04-30T09:27:03Z</time>
</trkpt>
<trkpt lat="44.368935050" lon="5.506105050">
  <ele>841.099975</ele>
<time>2018-04-30T09:27:13Z</time>
</trkpt>
<trkpt lat="44.368991720" lon="5.506181820">
  <ele>839.400024</ele>
<time>2018-04-30T09:27:19Z</time>
</trkpt>
<trkpt lat="44.369051730" lon="5.506275030">
  <ele>838.000000</ele>
<time>2018-04-30T09:27:26Z</time>
</trkpt>
<trkpt lat="44.369116770" lon="5.506340070">
  <ele>837.400024</ele>
<time>2018-04-30T09:27:32Z</time>
</trkpt>
<trkpt lat="44.369173440" lon="5.506416680">
  <ele>836.599975</ele>
<time>2018-04-30T09:27:38Z</time>
</trkpt>
<trkpt lat="44.369258430" lon="5.506393380">
  <ele>837.099975</ele>
<time>2018-04-30T09:27:49Z</time>
</trkpt>
<trkpt lat="44.369330010" lon="5.506345100">
  <ele>838.000000</ele>
<time>2018-04-30T09:27:56Z</time>
</trkpt>
<trkpt lat="44.369381810" lon="5.506245020">
  <ele>838.799987</ele>
<time>2018-04-30T09:28:03Z</time>
</trkpt>
<trkpt lat="44.369438470" lon="5.506148460">
  <ele>840.000000</ele>
<time>2018-04-30T09:28:10Z</time>
</trkpt>
<trkpt lat="44.369496810" lon="5.506065150">
  <ele>841.099975</ele>
<time>2018-04-30T09:28:17Z</time>
</trkpt>
<trkpt lat="44.369565040" lon="5.505995070">
  <ele>842.099975</ele>
<time>2018-04-30T09:28:24Z</time>
</trkpt>
<trkpt lat="44.369643490" lon="5.505963390">
  <ele>843.099975</ele>
<time>2018-04-30T09:28:31Z</time>
</trkpt>
<trkpt lat="44.369730160" lon="5.505935060">
  <ele>844.599975</ele>
<time>2018-04-30T09:28:39Z</time>
</trkpt>
<trkpt lat="44.369808450" lon="5.505970100">
  <ele>846.200012</ele>
<time>2018-04-30T09:28:46Z</time>
</trkpt>
<trkpt lat="44.369896790" lon="5.505966740">
  <ele>847.700012</ele>
<time>2018-04-30T09:28:56Z</time>
</trkpt>
<trkpt lat="44.369980110" lon="5.506001780">
  <ele>849.400024</ele>
<time>2018-04-30T09:29:05Z</time>
</trkpt>
<trkpt lat="44.370068460" lon="5.506005130">
  <ele>850.799987</ele>
<time>2018-04-30T09:29:14Z</time>
</trkpt>
<trkpt lat="44.370146740" lon="5.505991720">
  <ele>851.500000</ele>
<time>2018-04-30T09:29:22Z</time>
</trkpt>
<trkpt lat="44.370221680" lon="5.505923490">
  <ele>852.799987</ele>
<time>2018-04-30T09:29:30Z</time>
</trkpt>
<trkpt lat="44.370301810" lon="5.505908410">
  <ele>853.400024</ele>
<time>2018-04-30T09:29:38Z</time>
</trkpt>
<trkpt lat="44.370388480" lon="5.505923490">
  <ele>854.599975</ele>
<time>2018-04-30T09:29:57Z</time>
</trkpt>
<trkpt lat="44.370465090" lon="5.505875050">
  <ele>856.000000</ele>
<time>2018-04-30T09:30:05Z</time>
</trkpt>
<trkpt lat="44.370551760" lon="5.505886780">
  <ele>857.400024</ele>
<time>2018-04-30T09:30:13Z</time>
</trkpt>
<trkpt lat="44.370636750" lon="5.505906730">
  <ele>858.099975</ele>
<time>2018-04-30T09:30:20Z</time>
</trkpt>
<trkpt lat="44.370721740" lon="5.505903380">
  <ele>858.400024</ele>
<time>2018-04-30T09:30:27Z</time>
</trkpt>
<trkpt lat="44.370803380" lon="5.505901700">
  <ele>858.799987</ele>
<time>2018-04-30T09:30:34Z</time>
</trkpt>
<trkpt lat="44.370728450" lon="5.505941770">
  <ele>860.000000</ele>
<time>2018-04-30T09:31:02Z</time>
</trkpt>
<trkpt lat="44.370646810" lon="5.505923490">
  <ele>860.299987</ele>
<time>2018-04-30T09:31:11Z</time>
</trkpt>
<trkpt lat="44.370563490" lon="5.505901700">
  <ele>859.400024</ele>
<time>2018-04-30T09:31:17Z</time>
</trkpt>
<trkpt lat="44.370480010" lon="5.505890130">
  <ele>857.299987</ele>
<time>2018-04-30T09:31:24Z</time>
</trkpt>
<trkpt lat="44.370395010" lon="5.505925000">
  <ele>854.599975</ele>
<time>2018-04-30T09:31:33Z</time>
</trkpt>
<trkpt lat="44.370361820" lon="5.506021730">
  <ele>854.700012</ele>
<time>2018-04-30T09:31:38Z</time>
</trkpt>
<trkpt lat="44.370335000" lon="5.506135050">
  <ele>853.700012</ele>
<time>2018-04-30T09:31:44Z</time>
</trkpt>
<trkpt lat="44.370355120" lon="5.506243350">
  <ele>853.000000</ele>
<time>2018-04-30T09:31:50Z</time>
</trkpt>
<trkpt lat="44.370408430" lon="5.506321800">
  <ele>852.000000</ele>
<time>2018-04-30T09:31:56Z</time>
</trkpt>
<trkpt lat="44.370480010" lon="5.506381820">
  <ele>851.099975</ele>
<time>2018-04-30T09:32:02Z</time>
</trkpt>
<trkpt lat="44.370556790" lon="5.506436800">
  <ele>849.400024</ele>
<time>2018-04-30T09:32:09Z</time>
</trkpt>
<trkpt lat="44.370631720" lon="5.506476700">
  <ele>848.099975</ele>
<time>2018-04-30T09:32:16Z</time>
</trkpt>
<trkpt lat="44.370716710" lon="5.506498490">
  <ele>849.900024</ele>
<time>2018-04-30T09:33:41Z</time>
</trkpt>
<trkpt lat="44.370800030" lon="5.506530010">
  <ele>849.500000</ele>
<time>2018-04-30T09:35:09Z</time>
</trkpt>
<trkpt lat="44.370873450" lon="5.506588350">
  <ele>850.400024</ele>
<time>2018-04-30T09:35:21Z</time>
</trkpt>
<trkpt lat="44.370945040" lon="5.506646680">
  <ele>849.200012</ele>
<time>2018-04-30T09:35:28Z</time>
</trkpt>
<trkpt lat="44.371023490" lon="5.506695130">
  <ele>847.200012</ele>
<time>2018-04-30T09:35:35Z</time>
</trkpt>
<trkpt lat="44.371085010" lon="5.506760010">
  <ele>844.599975</ele>
<time>2018-04-30T09:35:53Z</time>
</trkpt>
<trkpt lat="44.371160110" lon="5.506805100">
  <ele>844.000000</ele>
<time>2018-04-30T09:35:59Z</time>
</trkpt>
<trkpt lat="44.371233370" lon="5.506858410">
  <ele>843.400024</ele>
<time>2018-04-30T09:36:16Z</time>
</trkpt>
<trkpt lat="44.371308470" lon="5.506895120">
  <ele>842.700012</ele>
<time>2018-04-30T09:36:22Z</time>
</trkpt>
<trkpt lat="44.371376700" lon="5.506948430">
  <ele>842.700012</ele>
<time>2018-04-30T09:36:28Z</time>
</trkpt>
<trkpt lat="44.371450130" lon="5.507015150">
  <ele>840.900024</ele>
<time>2018-04-30T09:37:24Z</time>
</trkpt>
<trkpt lat="44.371516680" lon="5.507066790">
  <ele>840.200012</ele>
<time>2018-04-30T09:37:29Z</time>
</trkpt>
<trkpt lat="44.371590110" lon="5.507106680">
  <ele>839.900024</ele>
<time>2018-04-30T09:37:35Z</time>
</trkpt>
<trkpt lat="44.371670070" lon="5.507148420">
  <ele>839.799987</ele>
<time>2018-04-30T09:37:41Z</time>
</trkpt>
<trkpt lat="44.371750030" lon="5.507195030">
  <ele>839.599975</ele>
<time>2018-04-30T09:37:47Z</time>
</trkpt>
<trkpt lat="44.371826810" lon="5.507255040">
  <ele>838.900024</ele>
<time>2018-04-30T09:37:53Z</time>
</trkpt>
<trkpt lat="44.371905100" lon="5.507316730">
  <ele>837.700012</ele>
<time>2018-04-30T09:38:00Z</time>
</trkpt>
<trkpt lat="44.371981710" lon="5.507381780">
  <ele>837.500000</ele>
<time>2018-04-30T09:38:07Z</time>
</trkpt>
<trkpt lat="44.372050110" lon="5.507448330">
  <ele>837.700012</ele>
<time>2018-04-30T09:38:13Z</time>
</trkpt>
<trkpt lat="44.372123360" lon="5.507503480">
  <ele>837.000000</ele>
<time>2018-04-30T09:38:19Z</time>
</trkpt>
<trkpt lat="44.372201820" lon="5.507563330">
  <ele>836.400024</ele>
<time>2018-04-30T09:38:25Z</time>
</trkpt>
<trkpt lat="44.372280100" lon="5.507616810">
  <ele>836.299987</ele>
<time>2018-04-30T09:38:31Z</time>
</trkpt>
<trkpt lat="44.372360070" lon="5.507660060">
  <ele>834.599975</ele>
<time>2018-04-30T09:38:37Z</time>
</trkpt>
<trkpt lat="44.372443380" lon="5.507686710">
  <ele>833.900024</ele>
<time>2018-04-30T09:38:55Z</time>
</trkpt>
<trkpt lat="44.372525020" lon="5.507716720">
  <ele>833.599975</ele>
<time>2018-04-30T09:39:01Z</time>
</trkpt>
<trkpt lat="44.372603480" lon="5.507743370">
  <ele>832.500000</ele>
<time>2018-04-30T09:39:07Z</time>
</trkpt>
<trkpt lat="44.372678410" lon="5.507780080">
  <ele>833.500000</ele>
<time>2018-04-30T09:39:13Z</time>
</trkpt>
<trkpt lat="44.372760050" lon="5.507816800">
  <ele>832.700012</ele>
<time>2018-04-30T09:39:20Z</time>
</trkpt>
<trkpt lat="44.372841690" lon="5.507865080">
  <ele>831.200012</ele>
<time>2018-04-30T09:39:27Z</time>
</trkpt>
<trkpt lat="44.372920150" lon="5.507913360">
  <ele>830.900024</ele>
<time>2018-04-30T09:39:33Z</time>
</trkpt>
<trkpt lat="44.372998430" lon="5.507950070">
  <ele>830.500000</ele>
<time>2018-04-30T09:39:46Z</time>
</trkpt>
<trkpt lat="44.373085100" lon="5.507981750">
  <ele>830.099975</ele>
<time>2018-04-30T09:39:53Z</time>
</trkpt>
<trkpt lat="44.373170100" lon="5.508013440">
  <ele>828.599975</ele>
<time>2018-04-30T09:39:59Z</time>
</trkpt>
<trkpt lat="44.373251730" lon="5.508063390">
  <ele>827.599975</ele>
<time>2018-04-30T09:40:05Z</time>
</trkpt>
<trkpt lat="44.373331700" lon="5.508106810">
  <ele>826.799987</ele>
<time>2018-04-30T09:40:11Z</time>
</trkpt>
<trkpt lat="44.373408480" lon="5.508131790">
  <ele>826.799987</ele>
<time>2018-04-30T09:40:17Z</time>
</trkpt>
<trkpt lat="44.373490120" lon="5.508150060">
  <ele>825.500000</ele>
<time>2018-04-30T09:40:23Z</time>
</trkpt>
<trkpt lat="44.373570080" lon="5.508153410">
  <ele>824.000000</ele>
<time>2018-04-30T09:40:29Z</time>
</trkpt>
<trkpt lat="44.373650040" lon="5.508121730">
  <ele>824.400024</ele>
<time>2018-04-30T09:40:36Z</time>
</trkpt>
<trkpt lat="44.373718440" lon="5.508070100">
  <ele>824.299987</ele>
<time>2018-04-30T09:40:42Z</time>
</trkpt>
<trkpt lat="44.373798400" lon="5.508098430">
  <ele>823.299987</ele>
<time>2018-04-30T09:40:48Z</time>
</trkpt>
<trkpt lat="44.373780130" lon="5.508218460">
  <ele>821.900024</ele>
<time>2018-04-30T09:40:54Z</time>
</trkpt>
<trkpt lat="44.373721790" lon="5.508283330">
  <ele>821.000000</ele>
<time>2018-04-30T09:40:59Z</time>
</trkpt>
<trkpt lat="44.373648370" lon="5.508343350">
  <ele>821.599975</ele>
<time>2018-04-30T09:41:05Z</time>
</trkpt>
<trkpt lat="44.373575110" lon="5.508398330">
  <ele>820.500000</ele>
<time>2018-04-30T09:41:12Z</time>
</trkpt>
<trkpt lat="44.373501680" lon="5.508436720">
  <ele>820.400024</ele>
<time>2018-04-30T09:41:18Z</time>
</trkpt>
<trkpt lat="44.373426750" lon="5.508476790">
  <ele>819.000000</ele>
<time>2018-04-30T09:41:24Z</time>
</trkpt>
<trkpt lat="44.373346790" lon="5.508530100">
  <ele>818.299987</ele>
<time>2018-04-30T09:41:31Z</time>
</trkpt>
<trkpt lat="44.373271680" lon="5.508576700">
  <ele>818.299987</ele>
<time>2018-04-30T09:41:37Z</time>
</trkpt>
<trkpt lat="44.373200100" lon="5.508621800">
  <ele>815.400024</ele>
<time>2018-04-30T09:41:43Z</time>
</trkpt>
<trkpt lat="44.373116790" lon="5.508661690">
  <ele>814.099975</ele>
<time>2018-04-30T09:41:50Z</time>
</trkpt>
<trkpt lat="44.373038330" lon="5.508701760">
  <ele>812.700012</ele>
<time>2018-04-30T09:41:57Z</time>
</trkpt>
<trkpt lat="44.372966750" lon="5.508753390">
  <ele>811.099975</ele>
<time>2018-04-30T09:42:03Z</time>
</trkpt>
<trkpt lat="44.372885110" lon="5.508803350">
  <ele>809.299987</ele>
<time>2018-04-30T09:42:10Z</time>
</trkpt>
<trkpt lat="44.372818390" lon="5.508858330">
  <ele>807.700012</ele>
<time>2018-04-30T09:42:16Z</time>
</trkpt>
<trkpt lat="44.372751670" lon="5.508915160">
  <ele>805.799987</ele>
<time>2018-04-30T09:42:22Z</time>
</trkpt>
<trkpt lat="44.372680090" lon="5.508963440">
  <ele>804.799987</ele>
<time>2018-04-30T09:42:28Z</time>
</trkpt>
<trkpt lat="44.372603480" lon="5.509005020">
  <ele>803.599975</ele>
<time>2018-04-30T09:42:34Z</time>
</trkpt>
<trkpt lat="44.372526700" lon="5.509035020">
  <ele>802.099975</ele>
<time>2018-04-30T09:42:40Z</time>
</trkpt>
<trkpt lat="44.372441710" lon="5.509058490">
  <ele>800.000000</ele>
<time>2018-04-30T09:42:47Z</time>
</trkpt>
<trkpt lat="44.372363420" lon="5.509078440">
  <ele>798.599975</ele>
<time>2018-04-30T09:42:53Z</time>
</trkpt>
<trkpt lat="44.372285130" lon="5.509098390">
  <ele>797.400024</ele>
<time>2018-04-30T09:42:59Z</time>
</trkpt>
<trkpt lat="44.372196790" lon="5.509118340">
  <ele>795.900024</ele>
<time>2018-04-30T09:43:06Z</time>
</trkpt>
<trkpt lat="44.372120010" lon="5.509120020">
  <ele>795.200012</ele>
<time>2018-04-30T09:43:11Z</time>
</trkpt>
<trkpt lat="44.372045080" lon="5.509108450">
  <ele>794.000000</ele>
<time>2018-04-30T09:43:16Z</time>
</trkpt>
<trkpt lat="44.371960080" lon="5.509098390">
  <ele>792.599975</ele>
<time>2018-04-30T09:43:22Z</time>
</trkpt>
<trkpt lat="44.371878440" lon="5.509113480">
  <ele>791.700012</ele>
<time>2018-04-30T09:43:28Z</time>
</trkpt>
<trkpt lat="44.371795130" lon="5.509118340">
  <ele>791.099975</ele>
<time>2018-04-30T09:43:34Z</time>
</trkpt>
<trkpt lat="44.371718350" lon="5.509106770">
  <ele>790.500000</ele>
<time>2018-04-30T09:43:40Z</time>
</trkpt>
<trkpt lat="44.371635030" lon="5.509125050">
  <ele>789.299987</ele>
<time>2018-04-30T09:43:46Z</time>
</trkpt>
<trkpt lat="44.371551720" lon="5.509125050">
  <ele>787.900024</ele>
<time>2018-04-30T09:43:52Z</time>
</trkpt>
<trkpt lat="44.371463370" lon="5.509121690">
  <ele>788.099975</ele>
<time>2018-04-30T09:43:59Z</time>
</trkpt>
<trkpt lat="44.371375030" lon="5.509121690">
  <ele>787.099975</ele>
<time>2018-04-30T09:44:05Z</time>
</trkpt>
<trkpt lat="44.371295060" lon="5.509135100">
  <ele>785.400024</ele>
<time>2018-04-30T09:44:11Z</time>
</trkpt>
<trkpt lat="44.371213420" lon="5.509151700">
  <ele>783.900024</ele>
<time>2018-04-30T09:44:17Z</time>
</trkpt>
<trkpt lat="44.371126750" lon="5.509150020">
  <ele>783.599975</ele>
<time>2018-04-30T09:44:23Z</time>
</trkpt>
<trkpt lat="44.371050140" lon="5.509128400">
  <ele>784.400024</ele>
<time>2018-04-30T09:44:28Z</time>
</trkpt>
<trkpt lat="44.370965150" lon="5.509108450">
  <ele>784.500000</ele>
<time>2018-04-30T09:44:34Z</time>
</trkpt>
<trkpt lat="44.370895080" lon="5.509186740">
  <ele>783.700012</ele>
<time>2018-04-30T09:44:41Z</time>
</trkpt>
<trkpt lat="44.370843450" lon="5.509285140">
  <ele>781.400024</ele>
<time>2018-04-30T09:45:45Z</time>
</trkpt>
<trkpt lat="44.370791810" lon="5.509385050">
  <ele>780.500000</ele>
<time>2018-04-30T09:45:52Z</time>
</trkpt>
<trkpt lat="44.370723420" lon="5.509466690">
  <ele>778.799987</ele>
<time>2018-04-30T09:46:01Z</time>
</trkpt>
<trkpt lat="44.370656700" lon="5.509525030">
  <ele>778.900024</ele>
<time>2018-04-30T09:46:08Z</time>
</trkpt>
<trkpt lat="44.370591820" lon="5.509585040">
  <ele>778.900024</ele>
<time>2018-04-30T09:46:15Z</time>
</trkpt>
<trkpt lat="44.370523430" lon="5.509648410">
  <ele>777.599975</ele>
<time>2018-04-30T09:46:22Z</time>
</trkpt>
<trkpt lat="44.370445140" lon="5.509710100">
  <ele>776.400024</ele>
<time>2018-04-30T09:46:29Z</time>
</trkpt>
<trkpt lat="44.370363330" lon="5.509736760">
  <ele>776.099975</ele>
<time>2018-04-30T09:46:36Z</time>
</trkpt>
<trkpt lat="44.370275150" lon="5.509721670">
  <ele>776.599975</ele>
<time>2018-04-30T09:46:42Z</time>
</trkpt>
<trkpt lat="44.370193350" lon="5.509683450">
  <ele>776.700012</ele>
<time>2018-04-30T09:46:48Z</time>
</trkpt>
<trkpt lat="44.370120090" lon="5.509613370">
  <ele>776.799987</ele>
<time>2018-04-30T09:46:55Z</time>
</trkpt>
<trkpt lat="44.370055040" lon="5.509540120">
  <ele>776.099975</ele>
<time>2018-04-30T09:47:01Z</time>
</trkpt>
<trkpt lat="44.370006760" lon="5.509453450">
  <ele>776.700012</ele>
<time>2018-04-30T09:47:07Z</time>
</trkpt>
<trkpt lat="44.369973400" lon="5.509350020">
  <ele>776.299987</ele>
<time>2018-04-30T09:47:13Z</time>
</trkpt>
<trkpt lat="44.369913390" lon="5.509273400">
  <ele>775.200012</ele>
<time>2018-04-30T09:47:19Z</time>
</trkpt>
<trkpt lat="44.369835100" lon="5.509278430">
  <ele>774.000000</ele>
<time>2018-04-30T09:47:25Z</time>
</trkpt>
<trkpt lat="44.369773410" lon="5.509353370">
  <ele>772.700012</ele>
<time>2018-04-30T09:47:31Z</time>
</trkpt>
<trkpt lat="44.369720100" lon="5.509445070">
  <ele>771.700012</ele>
<time>2018-04-30T09:47:37Z</time>
</trkpt>
<trkpt lat="44.369691770" lon="5.509540120">
  <ele>772.099975</ele>
<time>2018-04-30T09:47:42Z</time>
</trkpt>
<trkpt lat="44.369681710" lon="5.509655120">
  <ele>772.000000</ele>
<time>2018-04-30T09:47:47Z</time>
</trkpt>
<trkpt lat="44.369695130" lon="5.509773470">
  <ele>771.500000</ele>
<time>2018-04-30T09:47:53Z</time>
</trkpt>
<trkpt lat="44.369721780" lon="5.509876730">
  <ele>770.400024</ele>
<time>2018-04-30T09:47:59Z</time>
</trkpt>
<trkpt lat="44.369751790" lon="5.509980000">
  <ele>769.400024</ele>
<time>2018-04-30T09:48:05Z</time>
</trkpt>
<trkpt lat="44.369776770" lon="5.510086780">
  <ele>769.000000</ele>
<time>2018-04-30T09:48:11Z</time>
</trkpt>
<trkpt lat="44.369800070" lon="5.510206810">
  <ele>768.799987</ele>
<time>2018-04-30T09:48:17Z</time>
</trkpt>
<trkpt lat="44.369840130" lon="5.510301700">
  <ele>767.900024</ele>
<time>2018-04-30T09:48:23Z</time>
</trkpt>
<trkpt lat="44.369896790" lon="5.510396750">
  <ele>767.500000</ele>
<time>2018-04-30T09:48:29Z</time>
</trkpt>
<trkpt lat="44.369948430" lon="5.510478390">
  <ele>766.599975</ele>
<time>2018-04-30T09:48:35Z</time>
</trkpt>
<trkpt lat="44.370013470" lon="5.510538400">
  <ele>765.900024</ele>
<time>2018-04-30T09:48:41Z</time>
</trkpt>
<trkpt lat="44.370100140" lon="5.510555000">
  <ele>765.700012</ele>
<time>2018-04-30T09:48:47Z</time>
</trkpt>
<trkpt lat="44.370178430" lon="5.510561700">
  <ele>765.200012</ele>
<time>2018-04-30T09:48:53Z</time>
</trkpt>
<trkpt lat="44.370263420" lon="5.510593390">
  <ele>764.700012</ele>
<time>2018-04-30T09:49:08Z</time>
</trkpt>
<trkpt lat="44.370346730" lon="5.510625070">
  <ele>763.599975</ele>
<time>2018-04-30T09:49:15Z</time>
</trkpt>
<trkpt lat="44.370425020" lon="5.510641670">
  <ele>762.799987</ele>
<time>2018-04-30T09:49:20Z</time>
</trkpt>
<trkpt lat="44.370501800" lon="5.510668490">
  <ele>762.700012</ele>
<time>2018-04-30T09:49:26Z</time>
</trkpt>
<trkpt lat="44.370578410" lon="5.510711740">
  <ele>762.000000</ele>
<time>2018-04-30T09:49:32Z</time>
</trkpt>
<trkpt lat="44.370658370" lon="5.510763370">
  <ele>759.700012</ele>
<time>2018-04-30T09:49:38Z</time>
</trkpt>
<trkpt lat="44.370738340" lon="5.510801760">
  <ele>756.700012</ele>
<time>2018-04-30T09:49:44Z</time>
</trkpt>
<trkpt lat="44.370798350" lon="5.510871670">
  <ele>755.500000</ele>
<time>2018-04-30T09:49:50Z</time>
</trkpt>
<trkpt lat="44.370846800" lon="5.510963360">
  <ele>755.799987</ele>
<time>2018-04-30T09:49:56Z</time>
</trkpt>
<trkpt lat="44.370893400" lon="5.511061770">
  <ele>756.000000</ele>
<time>2018-04-30T09:50:02Z</time>
</trkpt>
<trkpt lat="44.370938330" lon="5.511150110">
  <ele>756.200012</ele>
<time>2018-04-30T09:50:08Z</time>
</trkpt>
<trkpt lat="44.371008400" lon="5.511203420">
  <ele>756.200012</ele>
<time>2018-04-30T09:50:14Z</time>
</trkpt>
<trkpt lat="44.371086690" lon="5.511240130">
  <ele>756.099975</ele>
<time>2018-04-30T09:50:20Z</time>
</trkpt>
<trkpt lat="44.371173360" lon="5.511258410">
  <ele>756.700012</ele>
<time>2018-04-30T09:50:26Z</time>
</trkpt>
<trkpt lat="44.371245110" lon="5.511293440">
  <ele>757.299987</ele>
<time>2018-04-30T09:50:31Z</time>
</trkpt>
<trkpt lat="44.371325070" lon="5.511315070">
  <ele>759.099975</ele>
<time>2018-04-30T09:50:37Z</time>
</trkpt>
<trkpt lat="44.371411740" lon="5.511311720">
  <ele>760.500000</ele>
<time>2018-04-30T09:50:46Z</time>
</trkpt>
<trkpt lat="44.371493380" lon="5.511350110">
  <ele>758.900024</ele>
<time>2018-04-30T09:50:52Z</time>
</trkpt>
<trkpt lat="44.371578370" lon="5.511360000">
  <ele>758.200012</ele>
<time>2018-04-30T09:50:58Z</time>
</trkpt>
<trkpt lat="44.371655150" lon="5.511371730">
  <ele>758.000000</ele>
<time>2018-04-30T09:51:03Z</time>
</trkpt>
<trkpt lat="44.371731760" lon="5.511398380">
  <ele>759.200012</ele>
<time>2018-04-30T09:51:08Z</time>
</trkpt>
<trkpt lat="44.371811720" lon="5.511428390">
  <ele>756.799987</ele>
<time>2018-04-30T09:51:15Z</time>
</trkpt>
<trkpt lat="44.371873410" lon="5.511475000">
  <ele>754.599975</ele>
<time>2018-04-30T09:51:20Z</time>
</trkpt>
<trkpt lat="44.371948350" lon="5.511525120">
  <ele>752.900024</ele>
<time>2018-04-30T09:51:25Z</time>
</trkpt>
<trkpt lat="44.372026800" lon="5.511585130">
  <ele>748.200012</ele>
<time>2018-04-30T09:51:33Z</time>
</trkpt>
<trkpt lat="44.372110120" lon="5.511616820">
  <ele>744.099975</ele>
<time>2018-04-30T09:51:39Z</time>
</trkpt>
<trkpt lat="44.372188410" lon="5.511623360">
  <ele>735.500000</ele>
<time>2018-04-30T09:51:45Z</time>
</trkpt>
<trkpt lat="44.372275080" lon="5.511620000">
  <ele>725.400024</ele>
<time>2018-04-30T09:51:51Z</time>
</trkpt>
<trkpt lat="44.372333410" lon="5.511691750">
  <ele>738.299987</ele>
<time>2018-04-30T09:51:58Z</time>
</trkpt>
<trkpt lat="44.372416730" lon="5.511691750">
  <ele>734.900024</ele>
<time>2018-04-30T09:52:04Z</time>
</trkpt>
<trkpt lat="44.372501720" lon="5.511690080">
  <ele>731.700012</ele>
<time>2018-04-30T09:52:09Z</time>
</trkpt>
<trkpt lat="44.372575150" lon="5.511690080">
  <ele>730.900024</ele>
<time>2018-04-30T09:52:14Z</time>
</trkpt>
<trkpt lat="44.372655110" lon="5.511681690">
  <ele>727.599975</ele>
<time>2018-04-30T09:52:19Z</time>
</trkpt>
<trkpt lat="44.372720150" lon="5.511685050">
  <ele>726.599975</ele>
<time>2018-04-30T09:52:22Z</time>
</trkpt>
<trkpt lat="44.372810010" lon="5.511690080">
  <ele>725.700012</ele>
<time>2018-04-30T09:52:26Z</time>
</trkpt>
<trkpt lat="44.372886790" lon="5.511686720">
  <ele>722.200012</ele>
<time>2018-04-30T09:52:32Z</time>
</trkpt>
<trkpt lat="44.372968430" lon="5.511698460">
  <ele>716.299987</ele>
<time>2018-04-30T09:52:38Z</time>
</trkpt>
<trkpt lat="44.373043360" lon="5.511693430">
  <ele>710.799987</ele>
<time>2018-04-30T09:52:43Z</time>
</trkpt>
<trkpt lat="44.373128350" lon="5.511733490">
  <ele>720.900024</ele>
<time>2018-04-30T09:52:49Z</time>
</trkpt>
<trkpt lat="44.373211670" lon="5.511731820">
  <ele>723.900024</ele>
<time>2018-04-30T09:52:55Z</time>
</trkpt>
<trkpt lat="44.373288450" lon="5.511766690">
  <ele>722.700012</ele>
<time>2018-04-30T09:53:00Z</time>
</trkpt>
<trkpt lat="44.373371760" lon="5.511781770">
  <ele>719.200012</ele>
<time>2018-04-30T09:53:06Z</time>
</trkpt>
<trkpt lat="44.373458430" lon="5.511795020">
  <ele>721.799987</ele>
<time>2018-04-30T09:53:12Z</time>
</trkpt>
<trkpt lat="44.373538400" lon="5.511846820">
  <ele>727.900024</ele>
<time>2018-04-30T09:53:18Z</time>
</trkpt>
<trkpt lat="44.373625060" lon="5.511850000">
  <ele>730.799987</ele>
<time>2018-04-30T09:53:25Z</time>
</trkpt>
<trkpt lat="44.373701680" lon="5.511850000">
  <ele>732.500000</ele>
<time>2018-04-30T09:53:30Z</time>
</trkpt>
<trkpt lat="44.373786670" lon="5.511873470">
  <ele>732.900024</ele>
<time>2018-04-30T09:53:36Z</time>
</trkpt>
<trkpt lat="44.373865120" lon="5.511880010">
  <ele>733.099975</ele>
<time>2018-04-30T09:53:41Z</time>
</trkpt>
<trkpt lat="44.373945090" lon="5.511886710">
  <ele>733.700012</ele>
<time>2018-04-30T09:53:47Z</time>
</trkpt>
<trkpt lat="44.374025050" lon="5.511906660">
  <ele>735.099975</ele>
<time>2018-04-30T09:53:53Z</time>
</trkpt>
<trkpt lat="44.374101830" lon="5.511940020">
  <ele>736.599975</ele>
<time>2018-04-30T09:53:58Z</time>
</trkpt>
<trkpt lat="44.374186820" lon="5.511955110">
  <ele>739.099975</ele>
<time>2018-04-30T09:54:05Z</time>
</trkpt>
<trkpt lat="44.374275000" lon="5.511960140">
  <ele>740.900024</ele>
<time>2018-04-30T09:54:11Z</time>
</trkpt>
<trkpt lat="44.374360160" lon="5.511963490">
  <ele>744.599975</ele>
<time>2018-04-30T09:54:17Z</time>
</trkpt>
<trkpt lat="44.374438440" lon="5.511996690">
  <ele>746.000000</ele>
<time>2018-04-30T09:54:22Z</time>
</trkpt>
<trkpt lat="44.374516730" lon="5.512025020">
  <ele>749.400024</ele>
<time>2018-04-30T09:54:29Z</time>
</trkpt>
<trkpt lat="44.374583450" lon="5.512098440">
  <ele>750.500000</ele>
<time>2018-04-30T09:54:35Z</time>
</trkpt>
<trkpt lat="44.374655030" lon="5.512150070">
  <ele>748.400024</ele>
<time>2018-04-30T09:54:41Z</time>
</trkpt>
<trkpt lat="44.374735000" lon="5.512168350">
  <ele>743.099975</ele>
<time>2018-04-30T09:54:55Z</time>
</trkpt>
<trkpt lat="44.374815130" lon="5.512191820">
  <ele>743.500000</ele>
<time>2018-04-30T09:55:01Z</time>
</trkpt>
<trkpt lat="44.374893410" lon="5.512236740">
  <ele>743.299987</ele>
<time>2018-04-30T09:55:06Z</time>
</trkpt>
<trkpt lat="44.374963490" lon="5.512268430">
  <ele>739.799987</ele>
<time>2018-04-30T09:55:40Z</time>
</trkpt>
<trkpt lat="44.375050160" lon="5.512280160">
  <ele>738.299987</ele>
<time>2018-04-30T09:55:46Z</time>
</trkpt>
<trkpt lat="44.375135150" lon="5.512308490">
  <ele>737.400024</ele>
<time>2018-04-30T09:56:02Z</time>
</trkpt>
<trkpt lat="44.375225000" lon="5.512313350">
  <ele>737.500000</ele>
<time>2018-04-30T09:56:09Z</time>
</trkpt>
<trkpt lat="44.375311670" lon="5.512331790">
  <ele>737.299987</ele>
<time>2018-04-30T09:56:56Z</time>
</trkpt>
<trkpt lat="44.375396660" lon="5.512320060">
  <ele>736.700012</ele>
<time>2018-04-30T09:57:07Z</time>
</trkpt>
<trkpt lat="44.375475120" lon="5.512311680">
  <ele>736.900024</ele>
<time>2018-04-30T09:57:13Z</time>
</trkpt>
<trkpt lat="44.375558430" lon="5.512306820">
  <ele>737.099975</ele>
<time>2018-04-30T09:57:19Z</time>
</trkpt>
<trkpt lat="44.375638400" lon="5.512295080">
  <ele>736.799987</ele>
<time>2018-04-30T09:57:25Z</time>
</trkpt>
<trkpt lat="44.375721710" lon="5.512291730">
  <ele>736.000000</ele>
<time>2018-04-30T09:57:31Z</time>
</trkpt>
<trkpt lat="44.375808380" lon="5.512285020">
  <ele>735.700012</ele>
<time>2018-04-30T09:57:37Z</time>
</trkpt>
<trkpt lat="44.375891700" lon="5.512266750">
  <ele>736.299987</ele>
<time>2018-04-30T09:57:43Z</time>
</trkpt>
<trkpt lat="44.375980040" lon="5.512243450">
  <ele>735.400024</ele>
<time>2018-04-30T09:57:50Z</time>
</trkpt>
<trkpt lat="44.376063360" lon="5.512216790">
  <ele>735.500000</ele>
<time>2018-04-30T09:57:57Z</time>
</trkpt>
<trkpt lat="44.376141820" lon="5.512203380">
  <ele>735.599975</ele>
<time>2018-04-30T09:58:03Z</time>
</trkpt>
<trkpt lat="44.376225130" lon="5.512191820">
  <ele>735.900024</ele>
<time>2018-04-30T09:58:10Z</time>
</trkpt>
<trkpt lat="44.376291680" lon="5.512275130">
  <ele>736.200012</ele>
<time>2018-04-30T09:58:23Z</time>
</trkpt>
<trkpt lat="44.376298390" lon="5.512385100">
  <ele>735.200012</ele>
<time>2018-04-30T09:58:38Z</time>
</trkpt>
<trkpt lat="44.376333430" lon="5.512481660">
  <ele>734.400024</ele>
<time>2018-04-30T09:58:44Z</time>
</trkpt>
<trkpt lat="44.376353370" lon="5.512591800">
  <ele>734.000000</ele>
<time>2018-04-30T09:58:50Z</time>
</trkpt>
<trkpt lat="44.376376680" lon="5.512705120">
  <ele>733.700012</ele>
<time>2018-04-30T09:58:56Z</time>
</trkpt>
<trkpt lat="44.376403330" lon="5.512811740">
  <ele>733.799987</ele>
<time>2018-04-30T10:00:10Z</time>
</trkpt>
<trkpt lat="44.376433340" lon="5.512925060">
  <ele>733.700012</ele>
<time>2018-04-30T10:00:16Z</time>
</trkpt>
<trkpt lat="44.376476760" lon="5.513031680">
  <ele>733.200012</ele>
<time>2018-04-30T10:00:23Z</time>
</trkpt>
<trkpt lat="44.376481790" lon="5.513153390">
  <ele>733.000000</ele>
<time>2018-04-30T10:00:30Z</time>
</trkpt>
<trkpt lat="44.376486810" lon="5.513275090">
  <ele>733.099975</ele>
<time>2018-04-30T10:00:36Z</time>
</trkpt>
<trkpt lat="44.376490000" lon="5.513395120">
  <ele>733.099975</ele>
<time>2018-04-30T10:00:42Z</time>
</trkpt>
<trkpt lat="44.376480110" lon="5.513500060">
  <ele>733.500000</ele>
<time>2018-04-30T10:00:47Z</time>
</trkpt>
<trkpt lat="44.376475080" lon="5.513621770">
  <ele>733.299987</ele>
<time>2018-04-30T10:00:53Z</time>
</trkpt>
<trkpt lat="44.376486810" lon="5.513741800">
  <ele>733.599975</ele>
<time>2018-04-30T10:00:59Z</time>
</trkpt>
<trkpt lat="44.376506760" lon="5.513856800">
  <ele>733.299987</ele>
<time>2018-04-30T10:01:05Z</time>
</trkpt>
<trkpt lat="44.376541800" lon="5.513960060">
  <ele>733.099975</ele>
<time>2018-04-30T10:01:11Z</time>
</trkpt>
<trkpt lat="44.376616730" lon="5.514026780">
  <ele>733.000000</ele>
<time>2018-04-30T10:01:17Z</time>
</trkpt>
<trkpt lat="44.376681780" lon="5.514088470">
  <ele>732.599975</ele>
<time>2018-04-30T10:01:22Z</time>
</trkpt>
<trkpt lat="44.376750010" lon="5.514158380">
  <ele>732.299987</ele>
<time>2018-04-30T10:01:28Z</time>
</trkpt>
<trkpt lat="44.376825110" lon="5.514211690">
  <ele>731.900024</ele>
<time>2018-04-30T10:01:34Z</time>
</trkpt>
<trkpt lat="44.376891830" lon="5.514288470">
  <ele>732.400024</ele>
<time>2018-04-30T10:01:41Z</time>
</trkpt>
<trkpt lat="44.376878420" lon="5.514400110">
  <ele>731.099975</ele>
<time>2018-04-30T10:01:47Z</time>
</trkpt>
<trkpt lat="44.376846730" lon="5.514505050">
  <ele>730.400024</ele>
<time>2018-04-30T10:02:02Z</time>
</trkpt>
<trkpt lat="44.376871710" lon="5.514390050">
  <ele>731.000000</ele>
<time>2018-04-30T10:03:05Z</time>
</trkpt>
<trkpt lat="44.376871710" lon="5.514390050">
  <ele>731.000000</ele>
<time>2018-04-30T10:03:05Z</time>
</trkpt>
<trkpt lat="44.376681780" lon="5.514088470">
  <ele>732.500000</ele>
<time>2018-04-30T10:01:22Z</time>
</trkpt>
<trkpt lat="44.376750010" lon="5.514158380">
  <ele>732.200000</ele>
<time>2018-04-30T10:01:28Z</time>
</trkpt>
<trkpt lat="44.376825110" lon="5.514211690">
  <ele>731.900000</ele>
<time>2018-04-30T10:01:34Z</time>
</trkpt>
<trkpt lat="44.376891830" lon="5.514288470">
  <ele>732.400000</ele>
<time>2018-04-30T10:01:41Z</time>
</trkpt>
<trkpt lat="44.376878420" lon="5.514400110">
  <ele>731.000000</ele>
<time>2018-04-30T10:01:47Z</time>
</trkpt>
<trkpt lat="44.376846730" lon="5.514505050">
  <ele>730.400000</ele>
<time>2018-04-30T10:02:02Z</time>
</trkpt>
<trkpt lat="44.376871710" lon="5.514390050">
  <ele>731.000000</ele>
<time>2018-04-30T10:03:05Z</time>
</trkpt>
<trkpt lat="44.376871710" lon="5.514390050">
  <ele>731.000000</ele>
<time>2018-04-30T10:03:05Z</time>
</trkpt>
<trkpt lat="44.376871710" lon="5.514390050">
  <ele>731.000000</ele>
<time>2018-04-30T10:03:12Z</time>
</trkpt>
</trkseg>
</trk>
</gpx>
